AFR754 LFPG-FZAA
Flight info
| Callsign | AFR754 |
|---|---|
| Flight time | 8h 30m |
| Altitude | 35000 |
| Route | AGOPA DCT ARKIP DCT ARMAL DCT ARTAX DCT BEBIX DCT LMG DCT UVELI DCT OSMOB DCT ARVID DCT PPN DCT NOLSA DCT ALEPO DCT VASUM N10 CJN L27 BLN DCT MGA DCT PIMOS DCT GALTO UN869 MABAP DCT BULIS UR981 BAKAB UA603 LIPET DCT BATIA DCT TENTU DCT ARDEX DCT BTA DCT MOVOD UG856 BZ DCT KSA |
| Aircraft | A359/H-SABDE2E3GHIJ1J2J3J4J5M1P2RWXYZ/LB1D1 |
Departure
| Time | 2026-05-07 10:22 |
|---|---|
| Airport | Charles de Gaulle International Airport (LFPG) |
Arrival
| Time | 2026-05-07 18:52 |
|---|---|
| Airport | Ndjili International Airport (FZAA) |
| Time | Latitude | Longitude | Altitude | Speed | Heading |
|---|---|---|---|---|---|
| 2026-05-07 09:12 | 49.00155 | 2.59237 | 360 ft | 0 kts | 265° |
| 2026-05-07 09:14 | 49.00154 | 2.59237 | 360 ft | 0 kts | 265° |
| 2026-05-07 09:15 | 49.00155 | 2.59237 | 360 ft | 0 kts | 265° |
| 2026-05-07 10:13 | 49.00155 | 2.59244 | 360 ft | 3 kts | 265° |
| 2026-05-07 10:13 | 49.00158 | 2.59285 | 362 ft | 4 kts | 263° |
| 2026-05-07 10:14 | 49.00161 | 2.59326 | 367 ft | 4 kts | 265° |
| 2026-05-07 10:14 | 49.00164 | 2.59360 | 366 ft | 4 kts | 234° |
| 2026-05-07 10:14 | 49.00182 | 2.59374 | 368 ft | 4 kts | 166° |
| 2026-05-07 10:14 | 49.00207 | 2.59361 | 368 ft | 4 kts | 158° |
| 2026-05-07 10:15 | 49.00230 | 2.59349 | 367 ft | 1 kts | 175° |
| 2026-05-07 10:18 | 49.00223 | 2.59350 | 364 ft | 3 kts | 175° |
| 2026-05-07 10:18 | 49.00165 | 2.59358 | 366 ft | 12 kts | 175° |
| 2026-05-07 10:18 | 49.00092 | 2.59411 | 366 ft | 12 kts | 120° |
| 2026-05-07 10:19 | 49.00077 | 2.59546 | 366 ft | 14 kts | 87° |
| 2026-05-07 10:19 | 49.00086 | 2.59703 | 366 ft | 16 kts | 85° |
| 2026-05-07 10:19 | 49.00096 | 2.59885 | 362 ft | 18 kts | 86° |
| 2026-05-07 10:19 | 49.00106 | 2.60087 | 362 ft | 20 kts | 86° |
| 2026-05-07 10:20 | 49.00085 | 2.60209 | 365 ft | 10 kts | 147° |
| 2026-05-07 10:20 | 49.00012 | 2.60234 | 366 ft | 12 kts | 173° |
| 2026-05-07 10:20 | 48.99921 | 2.60227 | 366 ft | 14 kts | 198° |
| 2026-05-07 10:20 | 48.99842 | 2.60124 | 365 ft | 16 kts | 244° |
| 2026-05-07 10:21 | 48.99825 | 2.60033 | 362 ft | 0 kts | 263° |
| 2026-05-07 10:21 | 48.99822 | 2.59982 | 364 ft | 20 kts | 265° |
| 2026-05-07 10:21 | 48.99789 | 2.59385 | 366 ft | 92 kts | 265° |
| 2026-05-07 10:21 | 48.99724 | 2.58138 | 368 ft | 150 kts | 265° |
| 2026-05-07 10:22 | 48.99614 | 2.56323 | 637 ft | 180 kts | 264° |
| 2026-05-07 10:22 | 48.99483 | 2.54441 | 1433 ft | 179 kts | 265° |
| 2026-05-07 10:22 | 48.99347 | 2.52526 | 2147 ft | 191 kts | 264° |
| 2026-05-07 10:22 | 48.99186 | 2.50429 | 2555 ft | 209 kts | 263° |
| 2026-05-07 10:23 | 48.99004 | 2.48140 | 2971 ft | 226 kts | 264° |
| 2026-05-07 10:23 | 48.98834 | 2.45655 | 3411 ft | 246 kts | 264° |
| 2026-05-07 10:23 | 48.98663 | 2.42971 | 3944 ft | 260 kts | 267° |
| 2026-05-07 10:23 | 48.98581 | 2.40255 | 4750 ft | 260 kts | 268° |
| 2026-05-07 10:24 | 48.98496 | 2.37480 | 5486 ft | 264 kts | 267° |
| 2026-05-07 10:24 | 48.98381 | 2.34674 | 6254 ft | 268 kts | 266° |
| 2026-05-07 10:24 | 48.98248 | 2.31820 | 7017 ft | 271 kts | 265° |
| 2026-05-07 10:24 | 48.98101 | 2.28983 | 7785 ft | 273 kts | 264° |
| 2026-05-07 10:25 | 48.97943 | 2.26086 | 8576 ft | 276 kts | 264° |
| 2026-05-07 10:25 | 48.97780 | 2.23149 | 9377 ft | 280 kts | 264° |
| 2026-05-07 10:25 | 48.97614 | 2.20180 | 10158 ft | 283 kts | 264° |
| 2026-05-07 10:25 | 48.97444 | 2.17200 | 10629 ft | 298 kts | 264° |
| 2026-05-07 10:26 | 48.97262 | 2.14014 | 11041 ft | 313 kts | 264° |
| 2026-05-07 10:26 | 48.97072 | 2.10717 | 11691 ft | 320 kts | 264° |
| 2026-05-07 10:26 | 48.96856 | 2.07326 | 12431 ft | 324 kts | 262° |
| 2026-05-07 10:26 | 48.96263 | 2.04011 | 13211 ft | 327 kts | 245° |
| 2026-05-07 10:27 | 48.94983 | 2.01163 | 13986 ft | 330 kts | 225° |
| 2026-05-07 10:27 | 48.93101 | 1.99147 | 14640 ft | 336 kts | 205° |
| 2026-05-07 10:27 | 48.90830 | 1.98264 | 15268 ft | 342 kts | 185° |
| 2026-05-07 10:27 | 48.88448 | 1.98674 | 15926 ft | 349 kts | 165° |
| 2026-05-07 10:28 | 48.86100 | 1.99459 | 16525 ft | 352 kts | 175° |
| 2026-05-07 10:28 | 48.83658 | 1.99639 | 17233 ft | 353 kts | 181° |
| 2026-05-07 10:28 | 48.81187 | 1.99638 | 17931 ft | 357 kts | 182° |
| 2026-05-07 10:28 | 48.78695 | 1.99609 | 18592 ft | 360 kts | 182° |
| 2026-05-07 10:29 | 48.76171 | 1.99578 | 19192 ft | 364 kts | 182° |
| 2026-05-07 10:29 | 48.73626 | 1.99546 | 19776 ft | 368 kts | 182° |
| 2026-05-07 10:29 | 48.71057 | 1.99515 | 20363 ft | 371 kts | 181° |
| 2026-05-07 10:30 | 48.65846 | 1.99452 | 21559 ft | 378 kts | 181° |
| 2026-05-07 10:30 | 48.63242 | 1.99448 | 22155 ft | 381 kts | 180° |
| 2026-05-07 10:30 | 48.60578 | 1.99526 | 22762 ft | 385 kts | 180° |
| 2026-05-07 10:30 | 48.57886 | 1.99614 | 23367 ft | 389 kts | 180° |
| 2026-05-07 10:31 | 48.55169 | 1.99699 | 23906 ft | 392 kts | 180° |
| 2026-05-07 10:31 | 48.52433 | 1.99778 | 24392 ft | 395 kts | 180° |
| 2026-05-07 10:31 | 48.49672 | 1.99854 | 24873 ft | 398 kts | 180° |
| 2026-05-07 10:31 | 48.46892 | 1.99929 | 25349 ft | 401 kts | 180° |
| 2026-05-07 10:32 | 48.44089 | 2.00003 | 25832 ft | 404 kts | 180° |
| 2026-05-07 10:32 | 48.41310 | 2.00076 | 26290 ft | 407 kts | 180° |
| 2026-05-07 10:32 | 48.38467 | 2.00151 | 26758 ft | 410 kts | 180° |
| 2026-05-07 10:32 | 48.35608 | 2.00226 | 27221 ft | 413 kts | 180° |
| 2026-05-07 10:33 | 48.32728 | 2.00301 | 27700 ft | 415 kts | 180° |
| 2026-05-07 10:33 | 48.29825 | 2.00376 | 28168 ft | 418 kts | 180° |
| 2026-05-07 10:33 | 48.26905 | 2.00458 | 28625 ft | 421 kts | 180° |
| 2026-05-07 10:33 | 48.23963 | 2.00544 | 29080 ft | 424 kts | 180° |
| 2026-05-07 10:34 | 48.21010 | 2.00630 | 29518 ft | 427 kts | 180° |
| 2026-05-07 10:34 | 48.18064 | 2.00715 | 29936 ft | 430 kts | 180° |
| 2026-05-07 10:34 | 48.15107 | 2.00800 | 30318 ft | 432 kts | 180° |
| 2026-05-07 10:34 | 48.12091 | 2.00887 | 30674 ft | 435 kts | 180° |
| 2026-05-07 10:35 | 48.09059 | 2.00974 | 31031 ft | 437 kts | 180° |
| 2026-05-07 10:35 | 48.06011 | 2.01077 | 31386 ft | 439 kts | 179° |
| 2026-05-07 10:35 | 48.02947 | 2.01243 | 31667 ft | 443 kts | 179° |
| 2026-05-07 10:35 | 47.99842 | 2.01445 | 31837 ft | 450 kts | 179° |
| 2026-05-07 10:36 | 47.96697 | 2.01659 | 31991 ft | 456 kts | 179° |
| 2026-05-07 10:36 | 47.93505 | 2.01872 | 32144 ft | 462 kts | 179° |
| 2026-05-07 10:36 | 47.90270 | 2.02079 | 32299 ft | 468 kts | 179° |
| 2026-05-07 10:36 | 47.87042 | 2.02279 | 32476 ft | 473 kts | 179° |
| 2026-05-07 10:37 | 47.83746 | 2.02478 | 32728 ft | 476 kts | 179° |
| 2026-05-07 10:37 | 47.80431 | 2.02675 | 32978 ft | 478 kts | 179° |
| 2026-05-07 10:37 | 47.77099 | 2.02871 | 33233 ft | 479 kts | 179° |
| 2026-05-07 10:37 | 47.73760 | 2.03068 | 33515 ft | 481 kts | 179° |
| 2026-05-07 10:38 | 47.70408 | 2.03265 | 33794 ft | 483 kts | 179° |
| 2026-05-07 10:38 | 47.67056 | 2.03462 | 34134 ft | 482 kts | 179° |
| 2026-05-07 10:38 | 47.63705 | 2.03660 | 34462 ft | 481 kts | 179° |
| 2026-05-07 10:38 | 47.60366 | 2.03859 | 34754 ft | 481 kts | 179° |
| 2026-05-07 10:39 | 47.57065 | 2.04051 | 34977 ft | 482 kts | 179° |
| 2026-05-07 10:39 | 47.53726 | 2.04241 | 35037 ft | 479 kts | 179° |
| 2026-05-07 10:39 | 47.47085 | 2.04615 | 35040 ft | 477 kts | 179° |
| 2026-05-07 10:40 | 47.40453 | 2.04989 | 35037 ft | 477 kts | 179° |
| 2026-05-07 10:40 | 47.33828 | 2.05051 | 35037 ft | 475 kts | 187° |
| 2026-05-07 10:41 | 47.27344 | 2.03708 | 35037 ft | 473 kts | 191° |
| 2026-05-07 10:41 | 47.20856 | 2.02064 | 35037 ft | 473 kts | 192° |
| 2026-05-07 10:42 | 47.14375 | 2.00384 | 35031 ft | 473 kts | 192° |
| 2026-05-07 10:42 | 47.07897 | 1.98731 | 35038 ft | 472 kts | 192° |
| 2026-05-07 10:43 | 47.01421 | 1.97100 | 35037 ft | 472 kts | 191° |
| 2026-05-07 10:43 | 46.94990 | 1.95490 | 35022 ft | 472 kts | 192° |
| 2026-05-07 10:44 | 46.88530 | 1.93877 | 35037 ft | 470 kts | 192° |
| 2026-05-07 10:44 | 46.82086 | 1.92269 | 35037 ft | 469 kts | 192° |
| 2026-05-07 10:45 | 46.75649 | 1.90666 | 35033 ft | 469 kts | 192° |
| 2026-05-07 10:45 | 46.69254 | 1.89079 | 35031 ft | 469 kts | 192° |
| 2026-05-07 10:46 | 46.62818 | 1.87485 | 35038 ft | 469 kts | 192° |
| 2026-05-07 10:46 | 46.56382 | 1.85895 | 35034 ft | 469 kts | 192° |
| 2026-05-07 10:47 | 46.49955 | 1.84311 | 35032 ft | 468 kts | 192° |
| 2026-05-07 10:47 | 46.43533 | 1.82733 | 35029 ft | 468 kts | 192° |
| 2026-05-07 10:48 | 46.37158 | 1.81169 | 35023 ft | 468 kts | 192° |
| 2026-05-07 10:48 | 46.30760 | 1.79532 | 35022 ft | 466 kts | 195° |
| 2026-05-07 10:49 | 46.24744 | 1.76270 | 35023 ft | 460 kts | 211° |
| 2026-05-07 10:49 | 46.19600 | 1.70862 | 35017 ft | 457 kts | 221° |
| 2026-05-07 10:50 | 46.14793 | 1.64866 | 35006 ft | 457 kts | 223° |
| 2026-05-07 10:50 | 46.10068 | 1.58868 | 35011 ft | 455 kts | 223° |
| 2026-05-07 10:51 | 46.05299 | 1.52887 | 35012 ft | 455 kts | 222° |
| 2026-05-07 10:51 | 46.00509 | 1.46940 | 35013 ft | 455 kts | 222° |
| 2026-05-07 10:52 | 45.95905 | 1.40733 | 35000 ft | 453 kts | 230° |
| 2026-05-07 10:52 | 45.92486 | 1.33279 | 35029 ft | 450 kts | 241° |
| 2026-05-07 10:53 | 45.89597 | 1.25317 | 35023 ft | 449 kts | 243° |
| 2026-05-07 10:53 | 45.86793 | 1.17303 | 35029 ft | 449 kts | 243° |
| 2026-05-07 10:54 | 45.83972 | 1.09310 | 35017 ft | 449 kts | 243° |
| 2026-05-07 10:54 | 45.80547 | 1.01910 | 35018 ft | 450 kts | 229° |
| 2026-05-07 10:55 | 45.75987 | 0.95757 | 35027 ft | 451 kts | 222° |
| 2026-05-07 10:55 | 45.71171 | 0.90000 | 34995 ft | 451 kts | 221° |
| 2026-05-07 10:56 | 45.66328 | 0.84306 | 35012 ft | 450 kts | 221° |
| 2026-05-07 10:56 | 45.61506 | 0.78601 | 35008 ft | 450 kts | 221° |
| 2026-05-07 10:57 | 45.56673 | 0.72860 | 35201 ft | 457 kts | 221° |
| 2026-05-07 10:57 | 45.54235 | 0.69966 | 35535 ft | 456 kts | 221° |
| 2026-05-07 10:57 | 45.51795 | 0.67072 | 35797 ft | 456 kts | 221° |
| 2026-05-07 10:58 | 45.49350 | 0.64176 | 36010 ft | 457 kts | 221° |
| 2026-05-07 10:58 | 45.46902 | 0.61280 | 36245 ft | 458 kts | 220° |
| 2026-05-07 10:58 | 45.44446 | 0.58379 | 36476 ft | 459 kts | 220° |
| 2026-05-07 10:58 | 45.42022 | 0.55519 | 36720 ft | 459 kts | 220° |
| 2026-05-07 10:59 | 45.39563 | 0.52622 | 36957 ft | 460 kts | 220° |
| 2026-05-07 10:59 | 45.37143 | 0.49773 | 37205 ft | 459 kts | 220° |
| 2026-05-07 10:59 | 45.34676 | 0.46873 | 37478 ft | 459 kts | 220° |
| 2026-05-07 10:59 | 45.32215 | 0.43983 | 37685 ft | 459 kts | 220° |
| 2026-05-07 11:00 | 45.29752 | 0.41093 | 37888 ft | 460 kts | 220° |
| 2026-05-07 11:00 | 45.27284 | 0.38201 | 38096 ft | 460 kts | 220° |
| 2026-05-07 11:00 | 45.24815 | 0.35310 | 38308 ft | 460 kts | 220° |
| 2026-05-07 11:00 | 45.22370 | 0.32452 | 38480 ft | 461 kts | 220° |
| 2026-05-07 11:01 | 45.19928 | 0.29602 | 38675 ft | 461 kts | 220° |
| 2026-05-07 11:01 | 45.17453 | 0.26715 | 38839 ft | 461 kts | 220° |
| 2026-05-07 11:01 | 45.14973 | 0.23827 | 38978 ft | 462 kts | 220° |
| 2026-05-07 11:01 | 45.12494 | 0.20942 | 39011 ft | 461 kts | 220° |
| 2026-05-07 11:02 | 45.07536 | 0.15184 | 39019 ft | 461 kts | 220° |
| 2026-05-07 11:02 | 45.02574 | 0.09430 | 39012 ft | 461 kts | 220° |
| 2026-05-07 11:03 | 44.97641 | 0.03724 | 39017 ft | 462 kts | 219° |
| 2026-05-07 11:03 | 44.92668 | -0.02007 | 39008 ft | 462 kts | 219° |
| 2026-05-07 11:04 | 44.87686 | -0.07736 | 39010 ft | 462 kts | 219° |
| 2026-05-07 11:04 | 44.82702 | -0.13457 | 39012 ft | 462 kts | 219° |
| 2026-05-07 11:05 | 44.77750 | -0.19128 | 39012 ft | 462 kts | 219° |
| 2026-05-07 11:05 | 44.72763 | -0.24827 | 39013 ft | 462 kts | 219° |
| 2026-05-07 11:06 | 44.67772 | -0.30518 | 39014 ft | 462 kts | 219° |
| 2026-05-07 11:06 | 44.62442 | -0.35553 | 39007 ft | 463 kts | 210° |
| 2026-05-07 11:07 | 44.56777 | -0.39850 | 39003 ft | 463 kts | 208° |
| 2026-05-07 11:07 | 44.51092 | -0.43993 | 39005 ft | 463 kts | 208° |
| 2026-05-07 11:08 | 44.45377 | -0.48148 | 39005 ft | 463 kts | 208° |
| 2026-05-07 11:08 | 44.39659 | -0.52319 | 38999 ft | 463 kts | 208° |
| 2026-05-07 11:09 | 44.33948 | -0.56488 | 38999 ft | 463 kts | 208° |
| 2026-05-07 11:09 | 44.28273 | -0.60624 | 38998 ft | 463 kts | 208° |
| 2026-05-07 11:10 | 44.22558 | -0.64777 | 38998 ft | 463 kts | 208° |
| 2026-05-07 11:10 | 44.16839 | -0.68925 | 39002 ft | 463 kts | 208° |
| 2026-05-07 11:11 | 44.11117 | -0.73065 | 39003 ft | 463 kts | 208° |
| 2026-05-07 11:11 | 44.05433 | -0.77169 | 39007 ft | 463 kts | 208° |
| 2026-05-07 11:12 | 43.99704 | -0.81296 | 39002 ft | 464 kts | 208° |
| 2026-05-07 11:12 | 43.93976 | -0.85412 | 39000 ft | 464 kts | 208° |
| 2026-05-07 11:13 | 43.88242 | -0.89525 | 38995 ft | 464 kts | 208° |
| 2026-05-07 11:13 | 43.82542 | -0.93605 | 38984 ft | 464 kts | 208° |
| 2026-05-07 11:14 | 43.76799 | -0.97706 | 38993 ft | 465 kts | 208° |
| 2026-05-07 11:14 | 43.71051 | -1.01802 | 38993 ft | 465 kts | 208° |
| 2026-05-07 11:15 | 43.65297 | -1.05893 | 38993 ft | 465 kts | 207° |
| 2026-05-07 11:15 | 43.59547 | -1.09973 | 38991 ft | 465 kts | 207° |
| 2026-05-07 11:16 | 43.53824 | -1.14024 | 38974 ft | 465 kts | 207° |
| 2026-05-07 11:16 | 43.48064 | -1.18094 | 38973 ft | 466 kts | 207° |
| 2026-05-07 11:17 | 43.42296 | -1.22159 | 38960 ft | 466 kts | 207° |
| 2026-05-07 11:17 | 43.36526 | -1.26216 | 38966 ft | 466 kts | 207° |
| 2026-05-07 11:18 | 43.30794 | -1.30241 | 38966 ft | 466 kts | 207° |
| 2026-05-07 11:18 | 43.25027 | -1.34281 | 38966 ft | 466 kts | 207° |
| 2026-05-07 11:19 | 43.19253 | -1.38316 | 38969 ft | 466 kts | 207° |
| 2026-05-07 11:19 | 43.13478 | -1.42344 | 38949 ft | 466 kts | 207° |
| 2026-05-07 11:20 | 43.07704 | -1.46364 | 38963 ft | 466 kts | 207° |
| 2026-05-07 11:20 | 43.01968 | -1.50357 | 38950 ft | 466 kts | 207° |
| 2026-05-07 11:21 | 42.96192 | -1.54373 | 38949 ft | 466 kts | 207° |
| 2026-05-07 11:21 | 42.90403 | -1.58389 | 38961 ft | 467 kts | 207° |
| 2026-05-07 11:22 | 42.84610 | -1.62400 | 38961 ft | 467 kts | 207° |
| 2026-05-07 11:22 | 42.78857 | -1.66375 | 38966 ft | 467 kts | 207° |
| 2026-05-07 11:23 | 42.73062 | -1.70371 | 38971 ft | 467 kts | 207° |
| 2026-05-07 11:23 | 42.67251 | -1.74316 | 38968 ft | 467 kts | 206° |
| 2026-05-07 11:24 | 42.61423 | -1.78217 | 38971 ft | 467 kts | 206° |
| 2026-05-07 11:24 | 42.55638 | -1.82086 | 38962 ft | 467 kts | 206° |
| 2026-05-07 11:25 | 42.49815 | -1.85982 | 38957 ft | 467 kts | 206° |
| 2026-05-07 11:25 | 42.43989 | -1.89876 | 38962 ft | 467 kts | 206° |
| 2026-05-07 11:26 | 42.38170 | -1.93758 | 38967 ft | 466 kts | 206° |
| 2026-05-07 11:26 | 42.32357 | -1.97629 | 38966 ft | 465 kts | 206° |
| 2026-05-07 11:27 | 42.26597 | -2.01466 | 38959 ft | 465 kts | 206° |
| 2026-05-07 11:27 | 42.20796 | -2.05312 | 38956 ft | 465 kts | 206° |
| 2026-05-07 11:28 | 42.14990 | -2.09140 | 38951 ft | 464 kts | 206° |
| 2026-05-07 11:28 | 42.09190 | -2.12964 | 38951 ft | 464 kts | 206° |
| 2026-05-07 11:29 | 42.03432 | -2.16752 | 38948 ft | 464 kts | 206° |
| 2026-05-07 11:29 | 41.97634 | -2.20562 | 38955 ft | 464 kts | 206° |
| 2026-05-07 11:30 | 41.91834 | -2.24366 | 38950 ft | 464 kts | 206° |
| 2026-05-07 11:30 | 41.86026 | -2.28168 | 38955 ft | 464 kts | 206° |
| 2026-05-07 11:31 | 41.80221 | -2.31960 | 38952 ft | 464 kts | 206° |
| 2026-05-07 11:31 | 41.74450 | -2.35722 | 38955 ft | 465 kts | 206° |
| 2026-05-07 11:32 | 41.65732 | -2.41390 | 38959 ft | 464 kts | 206° |
| 2026-05-07 11:33 | 41.59922 | -2.45159 | 38954 ft | 464 kts | 206° |
| 2026-05-07 11:33 | 41.54113 | -2.48919 | 38954 ft | 464 kts | 206° |
| 2026-05-07 11:34 | 41.48346 | -2.52647 | 38954 ft | 464 kts | 206° |
| 2026-05-07 11:34 | 41.42537 | -2.56392 | 38952 ft | 463 kts | 206° |
| 2026-05-07 11:35 | 41.36715 | -2.60073 | 38947 ft | 464 kts | 202° |
| 2026-05-07 11:35 | 41.30501 | -2.62297 | 38937 ft | 465 kts | 187° |
| 2026-05-07 11:36 | 41.24046 | -2.62323 | 38948 ft | 469 kts | 178° |
| 2026-05-07 11:36 | 41.17524 | -2.61730 | 38951 ft | 470 kts | 177° |
| 2026-05-07 11:37 | 41.10999 | -2.61071 | 38950 ft | 470 kts | 177° |
| 2026-05-07 11:37 | 41.04475 | -2.60454 | 38946 ft | 471 kts | 178° |
| 2026-05-07 11:38 | 40.97982 | -2.59872 | 38947 ft | 471 kts | 178° |
| 2026-05-07 11:38 | 40.91447 | -2.59289 | 38947 ft | 471 kts | 178° |
| 2026-05-07 11:39 | 40.84909 | -2.58699 | 38946 ft | 471 kts | 178° |
| 2026-05-07 11:39 | 40.78381 | -2.58110 | 38947 ft | 470 kts | 178° |
| 2026-05-07 11:40 | 40.71852 | -2.57523 | 38949 ft | 470 kts | 178° |
| 2026-05-07 11:40 | 40.65372 | -2.56940 | 38949 ft | 470 kts | 178° |
| 2026-05-07 11:41 | 40.58848 | -2.56355 | 38945 ft | 470 kts | 178° |
| 2026-05-07 11:41 | 40.52322 | -2.55772 | 38945 ft | 470 kts | 178° |
| 2026-05-07 11:42 | 40.45798 | -2.55192 | 38946 ft | 470 kts | 178° |
| 2026-05-07 11:42 | 40.39329 | -2.54887 | 38943 ft | 466 kts | 185° |
| 2026-05-07 11:43 | 40.33028 | -2.56547 | 38953 ft | 461 kts | 199° |
| 2026-05-07 11:43 | 40.26999 | -2.59420 | 38951 ft | 461 kts | 202° |
| 2026-05-07 11:44 | 40.21031 | -2.62480 | 38934 ft | 461 kts | 202° |
| 2026-05-07 11:44 | 40.15063 | -2.65524 | 38949 ft | 460 kts | 202° |
| 2026-05-07 11:45 | 40.09135 | -2.68504 | 38952 ft | 461 kts | 201° |
| 2026-05-07 11:45 | 40.03114 | -2.71509 | 38950 ft | 464 kts | 201° |
| 2026-05-07 11:46 | 39.97076 | -2.74513 | 38948 ft | 465 kts | 202° |
| 2026-05-07 11:46 | 39.91030 | -2.77518 | 38948 ft | 465 kts | 202° |
| 2026-05-07 11:47 | 39.85025 | -2.80497 | 38953 ft | 465 kts | 202° |
| 2026-05-07 11:47 | 39.78978 | -2.83493 | 38952 ft | 465 kts | 202° |
| 2026-05-07 11:48 | 39.72933 | -2.86480 | 38945 ft | 464 kts | 202° |
| 2026-05-07 11:48 | 39.66900 | -2.89457 | 38941 ft | 464 kts | 202° |
| 2026-05-07 11:49 | 39.60912 | -2.92407 | 38934 ft | 464 kts | 202° |
| 2026-05-07 11:49 | 39.54883 | -2.95379 | 38932 ft | 463 kts | 202° |
| 2026-05-07 11:50 | 39.48861 | -2.98343 | 38927 ft | 463 kts | 202° |
| 2026-05-07 11:50 | 39.42837 | -3.01302 | 38927 ft | 463 kts | 202° |
| 2026-05-07 11:51 | 39.36818 | -3.04256 | 38928 ft | 463 kts | 202° |
| 2026-05-07 11:51 | 39.30826 | -3.07175 | 38905 ft | 465 kts | 202° |
| 2026-05-07 11:52 | 39.24748 | -3.10124 | 38925 ft | 468 kts | 202° |
| 2026-05-07 11:52 | 39.18659 | -3.13076 | 38923 ft | 468 kts | 202° |
| 2026-05-07 11:53 | 39.12563 | -3.16029 | 38927 ft | 468 kts | 202° |
| 2026-05-07 11:53 | 39.06469 | -3.18975 | 38920 ft | 468 kts | 202° |
| 2026-05-07 11:54 | 39.00419 | -3.21895 | 38925 ft | 467 kts | 202° |
| 2026-05-07 11:54 | 38.94332 | -3.24833 | 38924 ft | 467 kts | 202° |
| 2026-05-07 11:55 | 38.88240 | -3.27759 | 38923 ft | 467 kts | 202° |
| 2026-05-07 11:55 | 38.82145 | -3.30680 | 38915 ft | 467 kts | 203° |
| 2026-05-07 11:56 | 38.76100 | -3.33575 | 38929 ft | 467 kts | 203° |
| 2026-05-07 11:56 | 38.70018 | -3.36483 | 38928 ft | 467 kts | 203° |
| 2026-05-07 11:57 | 38.63925 | -3.39392 | 38923 ft | 467 kts | 203° |
| 2026-05-07 11:57 | 38.57836 | -3.42292 | 38920 ft | 467 kts | 203° |
| 2026-05-07 11:58 | 38.51782 | -3.45170 | 38929 ft | 469 kts | 204° |
| 2026-05-07 11:58 | 38.45656 | -3.48079 | 38928 ft | 470 kts | 204° |
| 2026-05-07 11:59 | 38.39513 | -3.50989 | 38913 ft | 470 kts | 204° |
| 2026-05-07 11:59 | 38.33375 | -3.53891 | 38917 ft | 471 kts | 204° |
| 2026-05-07 12:00 | 38.27277 | -3.56771 | 38917 ft | 471 kts | 204° |
| 2026-05-07 12:00 | 38.21133 | -3.59664 | 38919 ft | 471 kts | 204° |
| 2026-05-07 12:01 | 38.14987 | -3.62556 | 38916 ft | 471 kts | 204° |
| 2026-05-07 12:01 | 38.08955 | -3.65758 | 38914 ft | 470 kts | 208° |
| 2026-05-07 12:02 | 38.03069 | -3.69220 | 38926 ft | 470 kts | 208° |
| 2026-05-07 12:02 | 38.00095 | -3.70961 | 39049 ft | 471 kts | 208° |
| 2026-05-07 12:02 | 37.97117 | -3.72681 | 39223 ft | 470 kts | 208° |
| 2026-05-07 12:02 | 37.94138 | -3.74381 | 39388 ft | 470 kts | 208° |
| 2026-05-07 12:03 | 37.91153 | -3.76071 | 39545 ft | 470 kts | 207° |
| 2026-05-07 12:03 | 37.88171 | -3.77752 | 39666 ft | 470 kts | 208° |
| 2026-05-07 12:03 | 37.85178 | -3.79434 | 39759 ft | 471 kts | 208° |
| 2026-05-07 12:03 | 37.82185 | -3.81115 | 39904 ft | 471 kts | 208° |
| 2026-05-07 12:04 | 37.79232 | -3.82772 | 39991 ft | 471 kts | 208° |
| 2026-05-07 12:04 | 37.73205 | -3.86153 | 40098 ft | 475 kts | 208° |
| 2026-05-07 12:04 | 37.70187 | -3.87844 | 40276 ft | 474 kts | 208° |
| 2026-05-07 12:05 | 37.67177 | -3.89528 | 40422 ft | 473 kts | 208° |
| 2026-05-07 12:05 | 37.66162 | -3.90097 | 40480 ft | 473 kts | 208° |
| 2026-05-07 12:05 | 37.58955 | -3.94121 | 40897 ft | 469 kts | 208° |
| 2026-05-07 12:06 | 37.56018 | -3.95762 | 40902 ft | 469 kts | 208° |
| 2026-05-07 12:06 | 37.50053 | -3.99087 | 40905 ft | 469 kts | 208° |
| 2026-05-07 12:07 | 37.44078 | -4.02411 | 40907 ft | 469 kts | 208° |
| 2026-05-07 12:07 | 37.38108 | -4.05726 | 40899 ft | 468 kts | 208° |
| 2026-05-07 12:08 | 37.32210 | -4.08993 | 40908 ft | 466 kts | 208° |
| 2026-05-07 12:08 | 37.26287 | -4.12272 | 40916 ft | 465 kts | 208° |
| 2026-05-07 12:09 | 37.20408 | -4.15521 | 40923 ft | 465 kts | 208° |
| 2026-05-07 12:09 | 37.14491 | -4.18785 | 40908 ft | 465 kts | 208° |
| 2026-05-07 12:10 | 37.08626 | -4.22013 | 40911 ft | 462 kts | 208° |
| 2026-05-07 12:10 | 37.02742 | -4.25247 | 40917 ft | 462 kts | 208° |
| 2026-05-07 12:11 | 36.96860 | -4.28476 | 40913 ft | 461 kts | 208° |
| 2026-05-07 12:11 | 36.90976 | -4.31701 | 40906 ft | 461 kts | 209° |
| 2026-05-07 12:12 | 36.85153 | -4.34882 | 40954 ft | 459 kts | 209° |
| 2026-05-07 12:12 | 36.79592 | -4.38435 | 40960 ft | 452 kts | 216° |
| 2026-05-07 12:13 | 36.74260 | -4.42569 | 40958 ft | 451 kts | 217° |
| 2026-05-07 12:13 | 36.68980 | -4.46784 | 40964 ft | 450 kts | 217° |
| 2026-05-07 12:14 | 36.63708 | -4.50993 | 40958 ft | 450 kts | 217° |
| 2026-05-07 12:14 | 36.58477 | -4.55145 | 40965 ft | 449 kts | 217° |
| 2026-05-07 12:15 | 36.53207 | -4.59314 | 40922 ft | 449 kts | 217° |
| 2026-05-07 12:15 | 36.47933 | -4.63479 | 40923 ft | 450 kts | 217° |
| 2026-05-07 12:16 | 36.42651 | -4.67642 | 40929 ft | 450 kts | 217° |
| 2026-05-07 12:16 | 36.37401 | -4.71774 | 40929 ft | 450 kts | 217° |
| 2026-05-07 12:17 | 36.32114 | -4.75928 | 40933 ft | 450 kts | 217° |
| 2026-05-07 12:17 | 36.26823 | -4.80079 | 40933 ft | 450 kts | 217° |
| 2026-05-07 12:18 | 36.21531 | -4.84224 | 40937 ft | 450 kts | 217° |
| 2026-05-07 12:18 | 36.16232 | -4.88367 | 40936 ft | 450 kts | 217° |
| 2026-05-07 12:19 | 36.10979 | -4.92492 | 40935 ft | 451 kts | 217° |
| 2026-05-07 12:19 | 36.05698 | -4.96680 | 40931 ft | 452 kts | 218° |
| 2026-05-07 12:20 | 36.00388 | -5.00888 | 40949 ft | 455 kts | 217° |
| 2026-05-07 12:20 | 35.95093 | -5.05068 | 40951 ft | 455 kts | 217° |
| 2026-05-07 12:21 | 35.89755 | -5.09270 | 40952 ft | 455 kts | 217° |
| 2026-05-07 12:21 | 35.84415 | -5.13466 | 40931 ft | 455 kts | 217° |
| 2026-05-07 12:22 | 35.79189 | -5.17832 | 40932 ft | 452 kts | 221° |
| 2026-05-07 12:22 | 35.74206 | -5.22551 | 40936 ft | 451 kts | 222° |
| 2026-05-07 12:23 | 35.69266 | -5.27241 | 40935 ft | 452 kts | 222° |
| 2026-05-07 12:23 | 35.64246 | -5.31907 | 40937 ft | 452 kts | 221° |
| 2026-05-07 12:24 | 35.59197 | -5.36543 | 40941 ft | 455 kts | 221° |
| 2026-05-07 12:24 | 35.54120 | -5.41189 | 40940 ft | 456 kts | 221° |
| 2026-05-07 12:25 | 35.49063 | -5.45811 | 40931 ft | 456 kts | 221° |
| 2026-05-07 12:25 | 35.43975 | -5.50457 | 40937 ft | 456 kts | 221° |
| 2026-05-07 12:26 | 35.38883 | -5.55099 | 40935 ft | 456 kts | 221° |
| 2026-05-07 12:26 | 35.33788 | -5.59737 | 40935 ft | 456 kts | 221° |
| 2026-05-07 12:27 | 35.28731 | -5.64335 | 40948 ft | 456 kts | 221° |
| 2026-05-07 12:27 | 35.23627 | -5.68967 | 40953 ft | 456 kts | 221° |
| 2026-05-07 12:28 | 35.18524 | -5.73590 | 40953 ft | 457 kts | 221° |
| 2026-05-07 12:28 | 35.13407 | -5.78220 | 40952 ft | 458 kts | 221° |
| 2026-05-07 12:29 | 35.08283 | -5.82848 | 40953 ft | 458 kts | 221° |
| 2026-05-07 12:29 | 35.03197 | -5.87433 | 40957 ft | 458 kts | 221° |
| 2026-05-07 12:30 | 34.98073 | -5.92045 | 40956 ft | 458 kts | 221° |
| 2026-05-07 12:30 | 34.92946 | -5.96654 | 40955 ft | 458 kts | 221° |
| 2026-05-07 12:31 | 34.87821 | -6.01253 | 40958 ft | 458 kts | 221° |
| 2026-05-07 12:31 | 34.82725 | -6.05818 | 40948 ft | 458 kts | 221° |
| 2026-05-07 12:32 | 34.77598 | -6.10405 | 40950 ft | 458 kts | 221° |
| 2026-05-07 12:32 | 34.72468 | -6.14987 | 40951 ft | 457 kts | 221° |
| 2026-05-07 12:33 | 34.64772 | -6.21847 | 40950 ft | 457 kts | 221° |
| 2026-05-07 12:33 | 34.59674 | -6.26382 | 40969 ft | 457 kts | 221° |
| 2026-05-07 12:34 | 34.54541 | -6.30942 | 40952 ft | 457 kts | 221° |
| 2026-05-07 12:34 | 34.49409 | -6.35493 | 40957 ft | 457 kts | 221° |
| 2026-05-07 12:35 | 34.44313 | -6.40006 | 40955 ft | 457 kts | 221° |
| 2026-05-07 12:35 | 34.39177 | -6.44547 | 40955 ft | 457 kts | 221° |
| 2026-05-07 12:36 | 34.34042 | -6.49079 | 40955 ft | 456 kts | 221° |
| 2026-05-07 12:36 | 34.28914 | -6.53599 | 40926 ft | 456 kts | 221° |
| 2026-05-07 12:37 | 34.23790 | -6.58109 | 40947 ft | 456 kts | 221° |
| 2026-05-07 12:37 | 34.18699 | -6.62582 | 40942 ft | 456 kts | 221° |
| 2026-05-07 12:38 | 34.13571 | -6.67081 | 40941 ft | 456 kts | 220° |
| 2026-05-07 12:38 | 34.08443 | -6.71574 | 40938 ft | 455 kts | 220° |
| 2026-05-07 12:39 | 34.03311 | -6.76054 | 40938 ft | 456 kts | 220° |
| 2026-05-07 12:39 | 33.98077 | -6.80388 | 40938 ft | 457 kts | 218° |
| 2026-05-07 12:40 | 33.92840 | -6.84629 | 40938 ft | 457 kts | 219° |
| 2026-05-07 12:40 | 33.87587 | -6.88904 | 40949 ft | 455 kts | 219° |
| 2026-05-07 12:41 | 33.82352 | -6.93186 | 40957 ft | 455 kts | 219° |
| 2026-05-07 12:41 | 33.77125 | -6.97465 | 40963 ft | 455 kts | 219° |
| 2026-05-07 12:42 | 33.71931 | -7.01711 | 40966 ft | 455 kts | 219° |
| 2026-05-07 12:42 | 33.66699 | -7.05980 | 40966 ft | 455 kts | 219° |
| 2026-05-07 12:43 | 33.61468 | -7.10240 | 40965 ft | 455 kts | 218° |
| 2026-05-07 12:43 | 33.56233 | -7.14498 | 40967 ft | 455 kts | 218° |
| 2026-05-07 12:44 | 33.51030 | -7.18723 | 40968 ft | 455 kts | 218° |
| 2026-05-07 12:44 | 33.45795 | -7.22968 | 40957 ft | 454 kts | 218° |
| 2026-05-07 12:45 | 33.40559 | -7.27207 | 40970 ft | 454 kts | 218° |
| 2026-05-07 12:45 | 33.35333 | -7.31432 | 40973 ft | 454 kts | 218° |
| 2026-05-07 12:46 | 33.30102 | -7.35655 | 40970 ft | 454 kts | 218° |
| 2026-05-07 12:46 | 33.24908 | -7.39842 | 40968 ft | 454 kts | 218° |
| 2026-05-07 12:47 | 33.19673 | -7.44056 | 40971 ft | 453 kts | 218° |
| 2026-05-07 12:47 | 33.14442 | -7.48260 | 40966 ft | 453 kts | 218° |
| 2026-05-07 12:48 | 33.09186 | -7.52429 | 40966 ft | 455 kts | 216° |
| 2026-05-07 12:48 | 33.03767 | -7.56251 | 40968 ft | 456 kts | 214° |
| 2026-05-07 12:49 | 32.98260 | -7.60009 | 40965 ft | 456 kts | 214° |
| 2026-05-07 12:49 | 32.92782 | -7.63802 | 40963 ft | 455 kts | 215° |
| 2026-05-07 12:50 | 32.87326 | -7.67624 | 40964 ft | 455 kts | 215° |
| 2026-05-07 12:50 | 32.81911 | -7.71432 | 40959 ft | 455 kts | 215° |
| 2026-05-07 12:51 | 32.76457 | -7.75252 | 40959 ft | 455 kts | 215° |
| 2026-05-07 12:51 | 32.71001 | -7.79064 | 40956 ft | 455 kts | 215° |
| 2026-05-07 12:52 | 32.65542 | -7.82874 | 40957 ft | 455 kts | 215° |
| 2026-05-07 12:52 | 32.60084 | -7.86679 | 40956 ft | 456 kts | 215° |
| 2026-05-07 12:53 | 32.54651 | -7.90460 | 40949 ft | 456 kts | 214° |
| 2026-05-07 12:53 | 32.49183 | -7.94261 | 40950 ft | 456 kts | 214° |
| 2026-05-07 12:54 | 32.43715 | -7.98057 | 40952 ft | 456 kts | 214° |
| 2026-05-07 12:54 | 32.38241 | -8.01850 | 40952 ft | 456 kts | 214° |
| 2026-05-07 12:55 | 32.32769 | -8.05638 | 40944 ft | 456 kts | 214° |
| 2026-05-07 12:55 | 32.27323 | -8.09403 | 40947 ft | 457 kts | 214° |
| 2026-05-07 12:56 | 32.21837 | -8.13189 | 40942 ft | 457 kts | 214° |
| 2026-05-07 12:56 | 32.16354 | -8.16967 | 40943 ft | 457 kts | 214° |
| 2026-05-07 12:57 | 32.10481 | -8.19957 | 40946 ft | 466 kts | 200° |
| 2026-05-07 12:57 | 32.04167 | -8.21607 | 40945 ft | 470 kts | 195° |
| 2026-05-07 12:58 | 31.97735 | -8.23004 | 40944 ft | 470 kts | 195° |
| 2026-05-07 12:58 | 31.91295 | -8.24378 | 40936 ft | 470 kts | 195° |
| 2026-05-07 12:59 | 31.84861 | -8.25778 | 40937 ft | 470 kts | 195° |
| 2026-05-07 12:59 | 31.78475 | -8.27184 | 40933 ft | 470 kts | 195° |
| 2026-05-07 13:00 | 31.72039 | -8.28604 | 40941 ft | 470 kts | 195° |
| 2026-05-07 13:00 | 31.65608 | -8.30018 | 40940 ft | 470 kts | 195° |
| 2026-05-07 13:01 | 31.59170 | -8.31432 | 40939 ft | 471 kts | 195° |
| 2026-05-07 13:01 | 31.52777 | -8.32834 | 40940 ft | 471 kts | 195° |
| 2026-05-07 13:02 | 31.46345 | -8.34242 | 40940 ft | 470 kts | 195° |
| 2026-05-07 13:02 | 31.39916 | -8.35647 | 40939 ft | 470 kts | 195° |
| 2026-05-07 13:03 | 31.33478 | -8.37053 | 40939 ft | 471 kts | 195° |
| 2026-05-07 13:03 | 31.27081 | -8.38448 | 40939 ft | 471 kts | 195° |
| 2026-05-07 13:04 | 31.20642 | -8.39849 | 40940 ft | 471 kts | 195° |
| 2026-05-07 13:04 | 31.14213 | -8.41246 | 40937 ft | 470 kts | 195° |
| 2026-05-07 13:05 | 31.07787 | -8.42643 | 40941 ft | 470 kts | 195° |
| 2026-05-07 13:05 | 31.01362 | -8.44037 | 40930 ft | 470 kts | 195° |
| 2026-05-07 13:06 | 30.94979 | -8.45419 | 40914 ft | 469 kts | 195° |
| 2026-05-07 13:06 | 30.88564 | -8.46804 | 40917 ft | 469 kts | 195° |
| 2026-05-07 13:07 | 30.82146 | -8.48190 | 40920 ft | 469 kts | 195° |
| 2026-05-07 13:07 | 30.75727 | -8.49577 | 40913 ft | 469 kts | 195° |
| 2026-05-07 13:08 | 30.69354 | -8.50950 | 40911 ft | 469 kts | 195° |
| 2026-05-07 13:08 | 30.62943 | -8.52327 | 40908 ft | 468 kts | 195° |
| 2026-05-07 13:09 | 30.56555 | -8.53698 | 40909 ft | 467 kts | 195° |
| 2026-05-07 13:09 | 30.50165 | -8.55069 | 40910 ft | 467 kts | 195° |
| 2026-05-07 13:10 | 30.43823 | -8.56428 | 40905 ft | 467 kts | 195° |
| 2026-05-07 13:10 | 30.37436 | -8.57794 | 40907 ft | 467 kts | 195° |
| 2026-05-07 13:11 | 30.31048 | -8.59159 | 40906 ft | 467 kts | 195° |
| 2026-05-07 13:11 | 30.24663 | -8.60521 | 40906 ft | 467 kts | 195° |
| 2026-05-07 13:12 | 30.18319 | -8.61872 | 40906 ft | 467 kts | 195° |
| 2026-05-07 13:12 | 30.11938 | -8.63232 | 40907 ft | 466 kts | 195° |
| 2026-05-07 13:13 | 30.05559 | -8.64588 | 40901 ft | 465 kts | 195° |
| 2026-05-07 13:13 | 29.99187 | -8.65939 | 40895 ft | 465 kts | 195° |
| 2026-05-07 13:14 | 29.92816 | -8.67290 | 40895 ft | 466 kts | 195° |
| 2026-05-07 13:14 | 29.86482 | -8.68631 | 40883 ft | 466 kts | 195° |
| 2026-05-07 13:15 | 29.80108 | -8.69977 | 40889 ft | 466 kts | 195° |
| 2026-05-07 13:15 | 29.73735 | -8.71322 | 40870 ft | 466 kts | 195° |
| 2026-05-07 13:16 | 29.67359 | -8.72667 | 40866 ft | 466 kts | 195° |
| 2026-05-07 13:16 | 29.61020 | -8.74003 | 40845 ft | 466 kts | 195° |
| 2026-05-07 13:17 | 29.54636 | -8.75346 | 40845 ft | 466 kts | 195° |
| 2026-05-07 13:17 | 29.48254 | -8.76686 | 40822 ft | 466 kts | 195° |
| 2026-05-07 13:18 | 29.41871 | -8.78036 | 40822 ft | 466 kts | 195° |
| 2026-05-07 13:18 | 29.35531 | -8.79378 | 40827 ft | 466 kts | 195° |
| 2026-05-07 13:19 | 29.29146 | -8.80720 | 40819 ft | 467 kts | 195° |
| 2026-05-07 13:19 | 29.22762 | -8.82055 | 40815 ft | 466 kts | 195° |
| 2026-05-07 13:20 | 29.16382 | -8.83386 | 40816 ft | 466 kts | 195° |
| 2026-05-07 13:20 | 29.09996 | -8.84717 | 40815 ft | 466 kts | 195° |
| 2026-05-07 13:21 | 29.03660 | -8.86036 | 40817 ft | 466 kts | 195° |
| 2026-05-07 13:21 | 28.97280 | -8.87362 | 40818 ft | 466 kts | 195° |
| 2026-05-07 13:22 | 28.90906 | -8.88686 | 40823 ft | 466 kts | 195° |
| 2026-05-07 13:22 | 28.84532 | -8.90008 | 40819 ft | 465 kts | 195° |
| 2026-05-07 13:23 | 28.78205 | -8.91319 | 40826 ft | 465 kts | 195° |
| 2026-05-07 13:23 | 28.71833 | -8.92637 | 40833 ft | 465 kts | 195° |
| 2026-05-07 13:24 | 28.65460 | -8.93954 | 40814 ft | 465 kts | 196° |
| 2026-05-07 13:24 | 28.59086 | -8.95270 | 40846 ft | 465 kts | 195° |
| 2026-05-07 13:25 | 28.52716 | -8.96583 | 40851 ft | 465 kts | 195° |
| 2026-05-07 13:25 | 28.46386 | -8.97886 | 40853 ft | 465 kts | 195° |
| 2026-05-07 13:26 | 28.40013 | -8.99197 | 40853 ft | 465 kts | 195° |
| 2026-05-07 13:26 | 28.33641 | -9.00505 | 40854 ft | 466 kts | 196° |
| 2026-05-07 13:27 | 28.27265 | -9.01812 | 40858 ft | 466 kts | 196° |
| 2026-05-07 13:27 | 28.20935 | -9.03110 | 40863 ft | 466 kts | 196° |
| 2026-05-07 13:28 | 28.14553 | -9.04416 | 40864 ft | 466 kts | 196° |
| 2026-05-07 13:28 | 28.08180 | -9.05719 | 40866 ft | 466 kts | 196° |
| 2026-05-07 13:29 | 28.01799 | -9.07021 | 40869 ft | 466 kts | 196° |
| 2026-05-07 13:29 | 27.95455 | -9.08315 | 40867 ft | 466 kts | 196° |
| 2026-05-07 13:30 | 27.89067 | -9.09616 | 40875 ft | 467 kts | 196° |
| 2026-05-07 13:30 | 27.82672 | -9.10917 | 40875 ft | 467 kts | 196° |
| 2026-05-07 13:31 | 27.76272 | -9.12211 | 40856 ft | 468 kts | 195° |
| 2026-05-07 13:31 | 27.69694 | -9.12472 | 40875 ft | 482 kts | 179° |
| 2026-05-07 13:32 | 27.63203 | -9.10416 | 40875 ft | 498 kts | 160° |
| 2026-05-07 13:32 | 27.60189 | -9.08427 | 40880 ft | 506 kts | 149° |
| 2026-05-07 13:32 | 27.57351 | -9.06069 | 40870 ft | 508 kts | 147° |
| 2026-05-07 13:33 | 27.51799 | -9.01091 | 40870 ft | 510 kts | 146° |
| 2026-05-07 13:33 | 27.46274 | -8.96069 | 40870 ft | 510 kts | 146° |
| 2026-05-07 13:34 | 27.37973 | -8.88653 | 40864 ft | 510 kts | 147° |
| 2026-05-07 13:35 | 27.32403 | -8.83722 | 40866 ft | 510 kts | 147° |
| 2026-05-07 13:35 | 27.26826 | -8.78794 | 40864 ft | 510 kts | 147° |
| 2026-05-07 13:36 | 27.21249 | -8.73870 | 40865 ft | 510 kts | 147° |
| 2026-05-07 13:36 | 27.15712 | -8.68985 | 40866 ft | 510 kts | 147° |
| 2026-05-07 13:37 | 27.10134 | -8.64071 | 40863 ft | 509 kts | 147° |
| 2026-05-07 13:37 | 27.04558 | -8.59166 | 40866 ft | 509 kts | 147° |
| 2026-05-07 13:38 | 26.98980 | -8.54265 | 40865 ft | 509 kts | 147° |
| 2026-05-07 13:38 | 26.93399 | -8.49368 | 40867 ft | 509 kts | 148° |
| 2026-05-07 13:39 | 26.87856 | -8.44509 | 40864 ft | 509 kts | 148° |
| 2026-05-07 13:39 | 26.82281 | -8.39630 | 40865 ft | 508 kts | 148° |
| 2026-05-07 13:40 | 26.76710 | -8.34760 | 40865 ft | 508 kts | 148° |
| 2026-05-07 13:40 | 26.71136 | -8.29893 | 40861 ft | 508 kts | 148° |
| 2026-05-07 13:41 | 26.65610 | -8.25075 | 40861 ft | 507 kts | 148° |
| 2026-05-07 13:41 | 26.60041 | -8.20225 | 40863 ft | 507 kts | 148° |
| 2026-05-07 13:42 | 26.54478 | -8.15388 | 40861 ft | 507 kts | 148° |
| 2026-05-07 13:42 | 26.48913 | -8.10555 | 40861 ft | 507 kts | 149° |
| 2026-05-07 13:43 | 26.43387 | -8.05761 | 40862 ft | 507 kts | 149° |
| 2026-05-07 13:43 | 26.37817 | -8.00936 | 40859 ft | 507 kts | 149° |
| 2026-05-07 13:44 | 26.32249 | -7.96117 | 40854 ft | 507 kts | 149° |
| 2026-05-07 13:44 | 26.26703 | -7.91324 | 40851 ft | 508 kts | 149° |
| 2026-05-07 13:45 | 26.21120 | -7.86505 | 40852 ft | 508 kts | 149° |
| 2026-05-07 13:45 | 26.15531 | -7.81686 | 40850 ft | 508 kts | 149° |
| 2026-05-07 13:46 | 26.09945 | -7.76876 | 40846 ft | 508 kts | 149° |
| 2026-05-07 13:46 | 26.04356 | -7.72070 | 40828 ft | 508 kts | 149° |
| 2026-05-07 13:47 | 25.98798 | -7.67296 | 40847 ft | 508 kts | 149° |
| 2026-05-07 13:47 | 25.93200 | -7.62494 | 40848 ft | 508 kts | 149° |
| 2026-05-07 13:48 | 25.87601 | -7.57696 | 40844 ft | 508 kts | 150° |
| 2026-05-07 13:48 | 25.82006 | -7.52907 | 40845 ft | 508 kts | 150° |
| 2026-05-07 13:49 | 25.76416 | -7.48130 | 40843 ft | 507 kts | 150° |
| 2026-05-07 13:49 | 25.70864 | -7.43389 | 40839 ft | 506 kts | 150° |
| 2026-05-07 13:50 | 25.65283 | -7.38630 | 40851 ft | 506 kts | 150° |
| 2026-05-07 13:50 | 25.59704 | -7.33880 | 40834 ft | 506 kts | 150° |
| 2026-05-07 13:51 | 25.54124 | -7.29134 | 40828 ft | 506 kts | 150° |
| 2026-05-07 13:51 | 25.48581 | -7.24426 | 40828 ft | 506 kts | 150° |
| 2026-05-07 13:52 | 25.43003 | -7.19692 | 40821 ft | 504 kts | 151° |
| 2026-05-07 13:52 | 25.37462 | -7.14992 | 40829 ft | 501 kts | 151° |
| 2026-05-07 13:53 | 25.31932 | -7.10313 | 40827 ft | 500 kts | 151° |
| 2026-05-07 13:53 | 25.26404 | -7.05643 | 40826 ft | 500 kts | 151° |
| 2026-05-07 13:54 | 25.20911 | -7.01006 | 40826 ft | 500 kts | 151° |
| 2026-05-07 13:54 | 25.15382 | -6.96342 | 40798 ft | 500 kts | 152° |
| 2026-05-07 13:55 | 25.09863 | -6.91691 | 40822 ft | 498 kts | 152° |
| 2026-05-07 13:55 | 25.04352 | -6.87054 | 40821 ft | 498 kts | 152° |
| 2026-05-07 13:56 | 24.98878 | -6.82454 | 40813 ft | 497 kts | 153° |
| 2026-05-07 13:56 | 24.93385 | -6.77841 | 40815 ft | 496 kts | 153° |
| 2026-05-07 13:57 | 24.87898 | -6.73241 | 40813 ft | 496 kts | 153° |
| 2026-05-07 13:57 | 24.82411 | -6.68645 | 40805 ft | 496 kts | 153° |
| 2026-05-07 13:58 | 24.76925 | -6.64055 | 40807 ft | 495 kts | 153° |
| 2026-05-07 13:58 | 24.71475 | -6.59502 | 40809 ft | 495 kts | 153° |
| 2026-05-07 13:59 | 24.65989 | -6.54923 | 40814 ft | 495 kts | 153° |
| 2026-05-07 13:59 | 24.60501 | -6.50348 | 40803 ft | 495 kts | 153° |
| 2026-05-07 14:00 | 24.55012 | -6.45776 | 40796 ft | 495 kts | 153° |
| 2026-05-07 14:00 | 24.49523 | -6.41209 | 40799 ft | 494 kts | 153° |
| 2026-05-07 14:01 | 24.44082 | -6.36687 | 40807 ft | 494 kts | 153° |
| 2026-05-07 14:01 | 24.38594 | -6.32132 | 40800 ft | 495 kts | 153° |
| 2026-05-07 14:02 | 24.33102 | -6.27579 | 40796 ft | 495 kts | 153° |
| 2026-05-07 14:02 | 24.27649 | -6.23063 | 40793 ft | 494 kts | 153° |
| 2026-05-07 14:03 | 24.22158 | -6.18521 | 40785 ft | 495 kts | 154° |
| 2026-05-07 14:03 | 24.16658 | -6.13976 | 40788 ft | 495 kts | 154° |
| 2026-05-07 14:04 | 24.11157 | -6.09434 | 40782 ft | 495 kts | 154° |
| 2026-05-07 14:04 | 24.05653 | -6.04895 | 40778 ft | 495 kts | 154° |
| 2026-05-07 14:05 | 24.00190 | -6.00395 | 40782 ft | 495 kts | 154° |
| 2026-05-07 14:05 | 23.94688 | -5.95869 | 40748 ft | 495 kts | 154° |
| 2026-05-07 14:06 | 23.89180 | -5.91343 | 40779 ft | 495 kts | 154° |
| 2026-05-07 14:06 | 23.83667 | -5.86817 | 40783 ft | 496 kts | 154° |
| 2026-05-07 14:07 | 23.78191 | -5.82326 | 40782 ft | 496 kts | 154° |
| 2026-05-07 14:07 | 23.72675 | -5.77807 | 40790 ft | 496 kts | 154° |
| 2026-05-07 14:08 | 23.67160 | -5.73293 | 40790 ft | 496 kts | 154° |
| 2026-05-07 14:08 | 23.61644 | -5.68784 | 40794 ft | 496 kts | 155° |
| 2026-05-07 14:09 | 23.56162 | -5.64308 | 40794 ft | 496 kts | 155° |
| 2026-05-07 14:09 | 23.50643 | -5.59806 | 40806 ft | 495 kts | 155° |
| 2026-05-07 14:10 | 23.45125 | -5.55310 | 40806 ft | 495 kts | 155° |
| 2026-05-07 14:10 | 23.39605 | -5.50818 | 40815 ft | 495 kts | 155° |
| 2026-05-07 14:11 | 23.34081 | -5.46326 | 40815 ft | 495 kts | 155° |
| 2026-05-07 14:11 | 23.28598 | -5.41872 | 40812 ft | 495 kts | 155° |
| 2026-05-07 14:12 | 23.23088 | -5.37400 | 40821 ft | 494 kts | 155° |
| 2026-05-07 14:12 | 23.17572 | -5.32930 | 40823 ft | 494 kts | 155° |
| 2026-05-07 14:13 | 23.12050 | -5.28463 | 40828 ft | 496 kts | 155° |
| 2026-05-07 14:13 | 23.06515 | -5.23987 | 40829 ft | 496 kts | 155° |
| 2026-05-07 14:14 | 23.01018 | -5.19544 | 40813 ft | 496 kts | 154° |
| 2026-05-07 14:14 | 22.95482 | -5.15074 | 40839 ft | 495 kts | 154° |
| 2026-05-07 14:15 | 22.89952 | -5.10616 | 40840 ft | 495 kts | 154° |
| 2026-05-07 14:15 | 22.84417 | -5.06159 | 40848 ft | 495 kts | 154° |
| 2026-05-07 14:16 | 22.78923 | -5.01739 | 40849 ft | 495 kts | 154° |
| 2026-05-07 14:16 | 22.73392 | -4.97293 | 40857 ft | 495 kts | 154° |
| 2026-05-07 14:17 | 22.67857 | -4.92847 | 40846 ft | 494 kts | 154° |
| 2026-05-07 14:17 | 22.62356 | -4.88431 | 40848 ft | 492 kts | 154° |
| 2026-05-07 14:18 | 22.56897 | -4.84057 | 40847 ft | 491 kts | 154° |
| 2026-05-07 14:18 | 22.51399 | -4.79659 | 40868 ft | 491 kts | 154° |
| 2026-05-07 14:19 | 22.45903 | -4.75265 | 40870 ft | 491 kts | 154° |
| 2026-05-07 14:19 | 22.40406 | -4.70875 | 40869 ft | 491 kts | 154° |
| 2026-05-07 14:20 | 22.34936 | -4.66510 | 40858 ft | 493 kts | 154° |
| 2026-05-07 14:20 | 22.29410 | -4.62107 | 40862 ft | 494 kts | 154° |
| 2026-05-07 14:21 | 22.23882 | -4.57702 | 40865 ft | 494 kts | 154° |
| 2026-05-07 14:21 | 22.18348 | -4.53298 | 40863 ft | 494 kts | 154° |
| 2026-05-07 14:22 | 22.12813 | -4.48897 | 40867 ft | 494 kts | 154° |
| 2026-05-07 14:22 | 22.07312 | -4.44529 | 40866 ft | 494 kts | 154° |
| 2026-05-07 14:23 | 22.01767 | -4.40133 | 40863 ft | 496 kts | 154° |
| 2026-05-07 14:23 | 21.97144 | -4.36470 | 40865 ft | 496 kts | 154° |
| 2026-05-07 14:24 | 21.91581 | -4.32063 | 40865 ft | 496 kts | 154° |
| 2026-05-07 14:24 | 21.85118 | -4.26950 | 40871 ft | 496 kts | 154° |
| 2026-05-07 14:25 | 21.79556 | -4.22555 | 40868 ft | 496 kts | 154° |
| 2026-05-07 14:25 | 21.74930 | -4.18903 | 40871 ft | 496 kts | 154° |
| 2026-05-07 14:26 | 21.69364 | -4.14515 | 40872 ft | 497 kts | 154° |
| 2026-05-07 14:26 | 21.63790 | -4.10123 | 40873 ft | 497 kts | 154° |
| 2026-05-07 14:27 | 21.58211 | -4.05730 | 40870 ft | 497 kts | 154° |
| 2026-05-07 14:27 | 21.52669 | -4.01372 | 40870 ft | 497 kts | 154° |
| 2026-05-07 14:28 | 21.47090 | -3.96988 | 40867 ft | 497 kts | 154° |
| 2026-05-07 14:28 | 21.41508 | -3.92607 | 40867 ft | 497 kts | 154° |
| 2026-05-07 14:29 | 21.35928 | -3.88231 | 40863 ft | 497 kts | 154° |
| 2026-05-07 14:29 | 21.30383 | -3.83887 | 40865 ft | 497 kts | 154° |
| 2026-05-07 14:30 | 21.24796 | -3.79517 | 40863 ft | 497 kts | 154° |
| 2026-05-07 14:30 | 21.19211 | -3.75151 | 40865 ft | 497 kts | 154° |
| 2026-05-07 14:31 | 21.13626 | -3.70789 | 40862 ft | 497 kts | 154° |
| 2026-05-07 14:31 | 21.08039 | -3.66431 | 40854 ft | 497 kts | 153° |
| 2026-05-07 14:32 | 21.02484 | -3.62101 | 40856 ft | 498 kts | 153° |
| 2026-05-07 14:32 | 20.96885 | -3.57740 | 40853 ft | 498 kts | 153° |
| 2026-05-07 14:33 | 20.91285 | -3.53382 | 40853 ft | 498 kts | 153° |
| 2026-05-07 14:33 | 20.85687 | -3.49031 | 40853 ft | 498 kts | 153° |
| 2026-05-07 14:34 | 20.80125 | -3.44712 | 40851 ft | 497 kts | 153° |
| 2026-05-07 14:34 | 20.74526 | -3.40368 | 40846 ft | 498 kts | 153° |
| 2026-05-07 14:35 | 20.68915 | -3.36020 | 40848 ft | 498 kts | 153° |
| 2026-05-07 14:35 | 20.63311 | -3.31680 | 40846 ft | 498 kts | 153° |
| 2026-05-07 14:36 | 20.57744 | -3.27373 | 40844 ft | 498 kts | 153° |
| 2026-05-07 14:36 | 20.52136 | -3.23037 | 40840 ft | 498 kts | 153° |
| 2026-05-07 14:37 | 20.46531 | -3.18710 | 40842 ft | 498 kts | 153° |
| 2026-05-07 14:37 | 20.38111 | -3.12216 | 40835 ft | 498 kts | 153° |
| 2026-05-07 14:38 | 20.32487 | -3.07884 | 40832 ft | 499 kts | 153° |
| 2026-05-07 14:38 | 20.26904 | -3.03585 | 40826 ft | 499 kts | 153° |
| 2026-05-07 14:39 | 20.21274 | -2.99255 | 40829 ft | 499 kts | 153° |
| 2026-05-07 14:39 | 20.15648 | -2.94932 | 40818 ft | 499 kts | 153° |
| 2026-05-07 14:40 | 20.10017 | -2.90609 | 40808 ft | 499 kts | 152° |
| 2026-05-07 14:40 | 20.04420 | -2.86317 | 40821 ft | 499 kts | 152° |
| 2026-05-07 14:41 | 19.98785 | -2.81999 | 40818 ft | 499 kts | 152° |
| 2026-05-07 14:41 | 19.93145 | -2.77681 | 40818 ft | 499 kts | 152° |
| 2026-05-07 14:42 | 19.87509 | -2.73370 | 40812 ft | 499 kts | 152° |
| 2026-05-07 14:42 | 19.81866 | -2.69058 | 40812 ft | 499 kts | 152° |
| 2026-05-07 14:43 | 19.76265 | -2.64781 | 40805 ft | 499 kts | 152° |
| 2026-05-07 14:43 | 19.70637 | -2.60486 | 40814 ft | 498 kts | 152° |
| 2026-05-07 14:44 | 19.65015 | -2.56201 | 40810 ft | 497 kts | 152° |
| 2026-05-07 14:44 | 19.59397 | -2.51924 | 40807 ft | 497 kts | 152° |
| 2026-05-07 14:45 | 19.53813 | -2.47676 | 40804 ft | 497 kts | 152° |
| 2026-05-07 14:45 | 19.48191 | -2.43402 | 40797 ft | 497 kts | 152° |
| 2026-05-07 14:46 | 19.42569 | -2.39132 | 40786 ft | 497 kts | 152° |
| 2026-05-07 14:46 | 19.36956 | -2.34872 | 40799 ft | 496 kts | 152° |
| 2026-05-07 14:47 | 19.31347 | -2.30619 | 40796 ft | 496 kts | 152° |
| 2026-05-07 14:47 | 19.25775 | -2.26399 | 40789 ft | 497 kts | 152° |
| 2026-05-07 14:48 | 19.20152 | -2.22144 | 40784 ft | 497 kts | 152° |
| 2026-05-07 14:48 | 19.14521 | -2.17886 | 40784 ft | 497 kts | 152° |
| 2026-05-07 14:49 | 19.08894 | -2.13634 | 40769 ft | 498 kts | 152° |
| 2026-05-07 14:49 | 19.03285 | -2.09400 | 40783 ft | 499 kts | 152° |
| 2026-05-07 14:50 | 18.97638 | -2.05139 | 40777 ft | 499 kts | 152° |
| 2026-05-07 14:50 | 18.91989 | -2.00881 | 40775 ft | 499 kts | 152° |
| 2026-05-07 14:51 | 18.86335 | -1.96623 | 40770 ft | 499 kts | 152° |
| 2026-05-07 14:51 | 18.80719 | -1.92398 | 40766 ft | 499 kts | 152° |
| 2026-05-07 14:52 | 18.75065 | -1.88148 | 40753 ft | 499 kts | 151° |
| 2026-05-07 14:52 | 18.69404 | -1.83897 | 40763 ft | 499 kts | 151° |
| 2026-05-07 14:53 | 18.63746 | -1.79649 | 40756 ft | 499 kts | 151° |
| 2026-05-07 14:53 | 18.58120 | -1.75430 | 40771 ft | 499 kts | 151° |
| 2026-05-07 14:54 | 18.52457 | -1.71187 | 40763 ft | 499 kts | 151° |
| 2026-05-07 14:54 | 18.46796 | -1.66951 | 40759 ft | 499 kts | 151° |
| 2026-05-07 14:55 | 18.41124 | -1.62712 | 40740 ft | 499 kts | 151° |
| 2026-05-07 14:55 | 18.35494 | -1.58508 | 40747 ft | 500 kts | 151° |
| 2026-05-07 14:56 | 18.29822 | -1.54274 | 40744 ft | 500 kts | 151° |
| 2026-05-07 14:56 | 18.24150 | -1.50044 | 40741 ft | 500 kts | 150° |
| 2026-05-07 14:57 | 18.18476 | -1.45815 | 40743 ft | 500 kts | 150° |
| 2026-05-07 14:57 | 18.12803 | -1.41589 | 40739 ft | 500 kts | 150° |
| 2026-05-07 14:58 | 18.07167 | -1.37392 | 40732 ft | 500 kts | 151° |
| 2026-05-07 14:58 | 18.01492 | -1.33174 | 40726 ft | 500 kts | 151° |
| 2026-05-07 14:59 | 17.95815 | -1.28957 | 40727 ft | 500 kts | 151° |
| 2026-05-07 14:59 | 17.90139 | -1.24742 | 40728 ft | 500 kts | 151° |
| 2026-05-07 15:00 | 17.84505 | -1.20562 | 40724 ft | 500 kts | 151° |
| 2026-05-07 15:00 | 17.78824 | -1.16350 | 40725 ft | 500 kts | 151° |
| 2026-05-07 15:01 | 17.73150 | -1.12148 | 40704 ft | 499 kts | 150° |
| 2026-05-07 15:01 | 17.67495 | -1.07961 | 40715 ft | 496 kts | 150° |
| 2026-05-07 15:02 | 17.61893 | -1.03818 | 40717 ft | 496 kts | 150° |
| 2026-05-07 15:02 | 17.56248 | -0.99647 | 40714 ft | 496 kts | 150° |
| 2026-05-07 15:03 | 17.50608 | -0.95483 | 40714 ft | 496 kts | 150° |
| 2026-05-07 15:03 | 17.44967 | -0.91320 | 40709 ft | 496 kts | 150° |
| 2026-05-07 15:04 | 17.39324 | -0.87160 | 40685 ft | 496 kts | 150° |
| 2026-05-07 15:04 | 17.33717 | -0.83030 | 40706 ft | 496 kts | 150° |
| 2026-05-07 15:05 | 17.28068 | -0.78871 | 40705 ft | 496 kts | 150° |
| 2026-05-07 15:05 | 17.22417 | -0.74714 | 40701 ft | 497 kts | 150° |
| 2026-05-07 15:06 | 17.16762 | -0.70557 | 40703 ft | 497 kts | 150° |
| 2026-05-07 15:06 | 17.11144 | -0.66431 | 40702 ft | 497 kts | 150° |
| 2026-05-07 15:07 | 17.05485 | -0.62277 | 40703 ft | 497 kts | 150° |
| 2026-05-07 15:07 | 16.99823 | -0.58126 | 40702 ft | 497 kts | 150° |
| 2026-05-07 15:08 | 16.94159 | -0.53974 | 40702 ft | 497 kts | 150° |
| 2026-05-07 15:08 | 16.88534 | -0.49855 | 40705 ft | 497 kts | 150° |
| 2026-05-07 15:09 | 16.82865 | -0.45707 | 40702 ft | 497 kts | 150° |
| 2026-05-07 15:09 | 16.77197 | -0.41563 | 40704 ft | 497 kts | 150° |
| 2026-05-07 15:10 | 16.71531 | -0.37423 | 40699 ft | 497 kts | 150° |
| 2026-05-07 15:10 | 16.65896 | -0.33309 | 40699 ft | 498 kts | 149° |
| 2026-05-07 15:11 | 16.60221 | -0.29169 | 40694 ft | 498 kts | 149° |
| 2026-05-07 15:11 | 16.54545 | -0.25030 | 40694 ft | 498 kts | 149° |
| 2026-05-07 15:12 | 16.48864 | -0.20892 | 40694 ft | 498 kts | 149° |
| 2026-05-07 15:12 | 16.43222 | -0.16784 | 40689 ft | 498 kts | 149° |
| 2026-05-07 15:13 | 16.37543 | -0.12653 | 40689 ft | 498 kts | 149° |
| 2026-05-07 15:13 | 16.31863 | -0.08525 | 40686 ft | 498 kts | 149° |
| 2026-05-07 15:14 | 16.26023 | -0.04749 | 40689 ft | 490 kts | 160° |
| 2026-05-07 15:14 | 16.19625 | -0.02799 | 40689 ft | 478 kts | 178° |
| 2026-05-07 15:15 | 16.13021 | -0.02483 | 40689 ft | 474 kts | 184° |
| 2026-05-07 15:15 | 16.06426 | -0.02480 | 40699 ft | 474 kts | 185° |
| 2026-05-07 15:16 | 15.99830 | -0.02499 | 40698 ft | 474 kts | 184° |
| 2026-05-07 15:16 | 15.93251 | -0.02485 | 40700 ft | 475 kts | 184° |
| 2026-05-07 15:17 | 15.86686 | -0.02450 | 40702 ft | 475 kts | 184° |
| 2026-05-07 15:17 | 15.80071 | -0.02411 | 40696 ft | 475 kts | 184° |
| 2026-05-07 15:18 | 15.73458 | -0.02373 | 40701 ft | 475 kts | 184° |
| 2026-05-07 15:18 | 15.66845 | -0.02336 | 40700 ft | 475 kts | 184° |
| 2026-05-07 15:19 | 15.60280 | -0.02301 | 40702 ft | 476 kts | 183° |
| 2026-05-07 15:19 | 15.53659 | -0.02264 | 40703 ft | 476 kts | 183° |
| 2026-05-07 15:20 | 15.47032 | -0.02228 | 40702 ft | 476 kts | 183° |
| 2026-05-07 15:20 | 15.40410 | -0.02191 | 40703 ft | 476 kts | 183° |
| 2026-05-07 15:21 | 15.33833 | -0.02155 | 40705 ft | 476 kts | 183° |
| 2026-05-07 15:21 | 15.27206 | -0.02119 | 40701 ft | 476 kts | 183° |
| 2026-05-07 15:22 | 15.20580 | -0.02083 | 40705 ft | 477 kts | 183° |
| 2026-05-07 15:22 | 15.13940 | -0.02046 | 40705 ft | 477 kts | 183° |
| 2026-05-07 15:23 | 15.07354 | -0.02010 | 40708 ft | 477 kts | 183° |
| 2026-05-07 15:23 | 15.00717 | -0.01974 | 40708 ft | 477 kts | 183° |
| 2026-05-07 15:24 | 14.94079 | -0.01937 | 40708 ft | 477 kts | 183° |
| 2026-05-07 15:24 | 14.87436 | -0.01902 | 40710 ft | 478 kts | 183° |
| 2026-05-07 15:25 | 14.80822 | -0.01866 | 40711 ft | 479 kts | 183° |
| 2026-05-07 15:25 | 14.74156 | -0.01829 | 40711 ft | 479 kts | 183° |
| 2026-05-07 15:26 | 14.67488 | -0.01792 | 40710 ft | 479 kts | 183° |
| 2026-05-07 15:26 | 14.60823 | -0.01756 | 40714 ft | 479 kts | 183° |
| 2026-05-07 15:27 | 14.54160 | -0.01719 | 40713 ft | 479 kts | 183° |
| 2026-05-07 15:27 | 14.47494 | -0.01683 | 40722 ft | 479 kts | 183° |
| 2026-05-07 15:28 | 14.40876 | -0.01647 | 40719 ft | 479 kts | 183° |
| 2026-05-07 15:28 | 14.34213 | -0.01611 | 40727 ft | 479 kts | 183° |
| 2026-05-07 15:29 | 14.27549 | -0.01575 | 40724 ft | 479 kts | 183° |
| 2026-05-07 15:29 | 14.20887 | -0.01539 | 40723 ft | 479 kts | 182° |
| 2026-05-07 15:30 | 14.14247 | -0.01503 | 40734 ft | 481 kts | 182° |
| 2026-05-07 15:30 | 14.07538 | -0.01467 | 40732 ft | 482 kts | 182° |
| 2026-05-07 15:31 | 14.00833 | -0.01431 | 40740 ft | 482 kts | 182° |
| 2026-05-07 15:31 | 13.94131 | -0.00926 | 40737 ft | 487 kts | 171° |
| 2026-05-07 15:32 | 13.87764 | 0.01375 | 40747 ft | 491 kts | 158° |
| 2026-05-07 15:32 | 13.81602 | 0.04431 | 40748 ft | 492 kts | 156° |
| 2026-05-07 15:33 | 13.75489 | 0.07592 | 40760 ft | 491 kts | 156° |
| 2026-05-07 15:33 | 13.69408 | 0.10712 | 40760 ft | 491 kts | 156° |
| 2026-05-07 15:34 | 13.63327 | 0.13800 | 40777 ft | 491 kts | 156° |
| 2026-05-07 15:34 | 13.57227 | 0.16884 | 40784 ft | 491 kts | 156° |
| 2026-05-07 15:35 | 13.51096 | 0.19981 | 40785 ft | 491 kts | 156° |
| 2026-05-07 15:35 | 13.44964 | 0.23078 | 40800 ft | 492 kts | 156° |
| 2026-05-07 15:36 | 13.38861 | 0.26160 | 40802 ft | 492 kts | 156° |
| 2026-05-07 15:36 | 13.32715 | 0.29262 | 40813 ft | 492 kts | 156° |
| 2026-05-07 15:37 | 13.26569 | 0.32363 | 40817 ft | 492 kts | 156° |
| 2026-05-07 15:37 | 13.20417 | 0.35464 | 40818 ft | 493 kts | 156° |
| 2026-05-07 15:38 | 13.14306 | 0.38542 | 40830 ft | 492 kts | 156° |
| 2026-05-07 15:38 | 13.08159 | 0.41639 | 40825 ft | 492 kts | 156° |
| 2026-05-07 15:39 | 13.02003 | 0.44737 | 40832 ft | 493 kts | 156° |
| 2026-05-07 15:39 | 12.95847 | 0.47832 | 40824 ft | 493 kts | 156° |
| 2026-05-07 15:40 | 12.89732 | 0.50906 | 40821 ft | 493 kts | 156° |
| 2026-05-07 15:40 | 12.83569 | 0.54002 | 40823 ft | 493 kts | 156° |
| 2026-05-07 15:41 | 12.77415 | 0.57093 | 40828 ft | 493 kts | 156° |
| 2026-05-07 15:41 | 12.71257 | 0.60184 | 40818 ft | 493 kts | 156° |
| 2026-05-07 15:42 | 12.65100 | 0.63272 | 40812 ft | 492 kts | 156° |
| 2026-05-07 15:42 | 12.58987 | 0.66337 | 40807 ft | 492 kts | 156° |
| 2026-05-07 15:43 | 12.52832 | 0.69421 | 40809 ft | 492 kts | 156° |
| 2026-05-07 15:43 | 12.46679 | 0.72502 | 40805 ft | 492 kts | 156° |
| 2026-05-07 15:44 | 12.40565 | 0.75562 | 40800 ft | 492 kts | 156° |
| 2026-05-07 15:44 | 12.34399 | 0.78647 | 40801 ft | 495 kts | 156° |
| 2026-05-07 15:45 | 12.28211 | 0.81741 | 40808 ft | 496 kts | 156° |
| 2026-05-07 15:45 | 12.22016 | 0.84837 | 40807 ft | 496 kts | 156° |
| 2026-05-07 15:46 | 12.12767 | 0.89456 | 40793 ft | 496 kts | 156° |
| 2026-05-07 15:47 | 12.06573 | 0.92547 | 40794 ft | 496 kts | 156° |
| 2026-05-07 15:47 | 12.00374 | 0.95639 | 40789 ft | 496 kts | 155° |
| 2026-05-07 15:48 | 11.94176 | 0.98729 | 40780 ft | 496 kts | 155° |
| 2026-05-07 15:48 | 11.87979 | 1.01818 | 40778 ft | 496 kts | 155° |
| 2026-05-07 15:49 | 11.81821 | 1.04885 | 40781 ft | 496 kts | 155° |
| 2026-05-07 15:49 | 11.75619 | 1.07972 | 40779 ft | 496 kts | 155° |
| 2026-05-07 15:50 | 11.69419 | 1.11057 | 40768 ft | 496 kts | 155° |
| 2026-05-07 15:50 | 11.63217 | 1.14141 | 40769 ft | 495 kts | 155° |
| 2026-05-07 15:51 | 11.57064 | 1.17199 | 40761 ft | 495 kts | 155° |
| 2026-05-07 15:51 | 11.50877 | 1.20273 | 40755 ft | 495 kts | 155° |
| 2026-05-07 15:52 | 11.44699 | 1.23342 | 40758 ft | 494 kts | 155° |
| 2026-05-07 15:52 | 11.38515 | 1.26411 | 40762 ft | 494 kts | 155° |
| 2026-05-07 15:53 | 11.32388 | 1.29451 | 40758 ft | 493 kts | 155° |
| 2026-05-07 15:53 | 11.26211 | 1.32513 | 40757 ft | 494 kts | 155° |
| 2026-05-07 15:54 | 11.20033 | 1.35576 | 40759 ft | 494 kts | 155° |
| 2026-05-07 15:54 | 11.13846 | 1.38640 | 40764 ft | 495 kts | 155° |
| 2026-05-07 15:55 | 11.07693 | 1.41686 | 40761 ft | 494 kts | 155° |
| 2026-05-07 15:55 | 11.01527 | 1.44779 | 40752 ft | 495 kts | 152° |
| 2026-05-07 15:56 | 10.95818 | 1.48688 | 40763 ft | 495 kts | 144° |
| 2026-05-07 15:56 | 10.90315 | 1.52890 | 40758 ft | 495 kts | 143° |
| 2026-05-07 15:57 | 10.84847 | 1.57137 | 40769 ft | 494 kts | 144° |
| 2026-05-07 15:57 | 10.79413 | 1.61342 | 40780 ft | 494 kts | 144° |
| 2026-05-07 15:58 | 10.73934 | 1.65562 | 40780 ft | 494 kts | 144° |
| 2026-05-07 15:58 | 10.68450 | 1.69777 | 40781 ft | 494 kts | 144° |
| 2026-05-07 15:59 | 10.62965 | 1.73991 | 40788 ft | 494 kts | 144° |
| 2026-05-07 15:59 | 10.57518 | 1.78175 | 40788 ft | 494 kts | 144° |
| 2026-05-07 16:00 | 10.52034 | 1.82385 | 40790 ft | 494 kts | 144° |
| 2026-05-07 16:00 | 10.46557 | 1.86587 | 40784 ft | 493 kts | 144° |
| 2026-05-07 16:01 | 10.41079 | 1.90790 | 40790 ft | 494 kts | 144° |
| 2026-05-07 16:01 | 10.35633 | 1.94964 | 40789 ft | 494 kts | 143° |
| 2026-05-07 16:02 | 10.30142 | 1.99172 | 40785 ft | 494 kts | 143° |
| 2026-05-07 16:02 | 10.24653 | 2.03378 | 40792 ft | 494 kts | 143° |
| 2026-05-07 16:03 | 10.19162 | 2.07582 | 40787 ft | 494 kts | 143° |
| 2026-05-07 16:03 | 10.13664 | 2.11790 | 40789 ft | 495 kts | 143° |
| 2026-05-07 16:04 | 10.08213 | 2.15960 | 40784 ft | 493 kts | 143° |
| 2026-05-07 16:04 | 10.02735 | 2.20150 | 40791 ft | 494 kts | 143° |
| 2026-05-07 16:05 | 9.97252 | 2.24340 | 40797 ft | 492 kts | 143° |
| 2026-05-07 16:05 | 9.91783 | 2.28518 | 40789 ft | 492 kts | 143° |
| 2026-05-07 16:06 | 9.86354 | 2.32664 | 40793 ft | 490 kts | 143° |
| 2026-05-07 16:06 | 9.80902 | 2.36826 | 40799 ft | 490 kts | 143° |
| 2026-05-07 16:07 | 9.75481 | 2.40963 | 40798 ft | 486 kts | 143° |
| 2026-05-07 16:07 | 9.70078 | 2.45084 | 40798 ft | 486 kts | 143° |
| 2026-05-07 16:08 | 9.64678 | 2.49201 | 40803 ft | 486 kts | 143° |
| 2026-05-07 16:08 | 9.59312 | 2.53290 | 40803 ft | 486 kts | 143° |
| 2026-05-07 16:09 | 9.53913 | 2.57403 | 40804 ft | 486 kts | 143° |
| 2026-05-07 16:09 | 9.48510 | 2.61518 | 40804 ft | 486 kts | 143° |
| 2026-05-07 16:10 | 9.43108 | 2.65630 | 40807 ft | 486 kts | 143° |
| 2026-05-07 16:10 | 9.37750 | 2.69706 | 40808 ft | 484 kts | 143° |
| 2026-05-07 16:11 | 9.32366 | 2.73801 | 40812 ft | 484 kts | 143° |
| 2026-05-07 16:11 | 9.26979 | 2.77897 | 40807 ft | 484 kts | 143° |
| 2026-05-07 16:12 | 9.21596 | 2.81988 | 40814 ft | 484 kts | 143° |
| 2026-05-07 16:12 | 9.16217 | 2.86075 | 40809 ft | 484 kts | 143° |
| 2026-05-07 16:13 | 9.10868 | 2.90137 | 40817 ft | 484 kts | 143° |
| 2026-05-07 16:13 | 9.05658 | 2.94441 | 40824 ft | 485 kts | 136° |
| 2026-05-07 16:14 | 9.00832 | 2.99206 | 40817 ft | 485 kts | 135° |
| 2026-05-07 16:14 | 8.96068 | 3.04049 | 40805 ft | 485 kts | 135° |
| 2026-05-07 16:15 | 8.91352 | 3.08857 | 40824 ft | 484 kts | 135° |
| 2026-05-07 16:15 | 8.86601 | 3.13686 | 40825 ft | 484 kts | 135° |
| 2026-05-07 16:16 | 8.81846 | 3.18508 | 40823 ft | 484 kts | 135° |
| 2026-05-07 16:16 | 8.77086 | 3.23330 | 40830 ft | 484 kts | 135° |
| 2026-05-07 16:17 | 8.72362 | 3.28115 | 40831 ft | 484 kts | 135° |
| 2026-05-07 16:17 | 8.67607 | 3.32928 | 40836 ft | 485 kts | 134° |
| 2026-05-07 16:18 | 8.62836 | 3.37757 | 40826 ft | 485 kts | 134° |
| 2026-05-07 16:18 | 8.58065 | 3.42585 | 40838 ft | 486 kts | 134° |
| 2026-05-07 16:19 | 8.53325 | 3.47379 | 40838 ft | 486 kts | 134° |
| 2026-05-07 16:19 | 8.48547 | 3.52209 | 40829 ft | 486 kts | 134° |
| 2026-05-07 16:20 | 8.43774 | 3.57033 | 40842 ft | 486 kts | 134° |
| 2026-05-07 16:20 | 8.38996 | 3.61859 | 40840 ft | 486 kts | 134° |
| 2026-05-07 16:21 | 8.34250 | 3.66652 | 40843 ft | 486 kts | 134° |
| 2026-05-07 16:21 | 8.29479 | 3.71468 | 40840 ft | 484 kts | 134° |
| 2026-05-07 16:22 | 8.24720 | 3.76269 | 40844 ft | 483 kts | 134° |
| 2026-05-07 16:22 | 8.19966 | 3.81066 | 40852 ft | 483 kts | 134° |
| 2026-05-07 16:23 | 8.15220 | 3.85851 | 40851 ft | 482 kts | 134° |
| 2026-05-07 16:23 | 8.10499 | 3.90611 | 40859 ft | 483 kts | 134° |
| 2026-05-07 16:24 | 8.05747 | 3.95399 | 40854 ft | 483 kts | 134° |
| 2026-05-07 16:24 | 8.00992 | 4.00189 | 40869 ft | 483 kts | 134° |
| 2026-05-07 16:25 | 7.96262 | 4.04952 | 40869 ft | 483 kts | 134° |
| 2026-05-07 16:25 | 7.91507 | 4.09736 | 40859 ft | 483 kts | 134° |
| 2026-05-07 16:26 | 7.86776 | 4.14498 | 40874 ft | 484 kts | 134° |
| 2026-05-07 16:26 | 7.82008 | 4.19295 | 40876 ft | 484 kts | 134° |
| 2026-05-07 16:27 | 7.77242 | 4.24087 | 40876 ft | 483 kts | 134° |
| 2026-05-07 16:27 | 7.72479 | 4.28875 | 40870 ft | 483 kts | 134° |
| 2026-05-07 16:28 | 7.67754 | 4.33623 | 40877 ft | 483 kts | 134° |
| 2026-05-07 16:28 | 7.62992 | 4.38406 | 40875 ft | 483 kts | 133° |
| 2026-05-07 16:29 | 7.58235 | 4.43184 | 40868 ft | 483 kts | 134° |
| 2026-05-07 16:29 | 7.53467 | 4.47972 | 40878 ft | 486 kts | 134° |
| 2026-05-07 16:30 | 7.48704 | 4.52752 | 40880 ft | 487 kts | 134° |
| 2026-05-07 16:30 | 7.43898 | 4.57573 | 40870 ft | 487 kts | 134° |
| 2026-05-07 16:31 | 7.39097 | 4.62388 | 40874 ft | 487 kts | 134° |
| 2026-05-07 16:31 | 7.34293 | 4.67204 | 40877 ft | 487 kts | 134° |
| 2026-05-07 16:32 | 7.29492 | 4.72017 | 40874 ft | 487 kts | 134° |
| 2026-05-07 16:32 | 7.24723 | 4.76794 | 40876 ft | 487 kts | 134° |
| 2026-05-07 16:33 | 7.19920 | 4.81605 | 40874 ft | 487 kts | 134° |
| 2026-05-07 16:33 | 7.15114 | 4.86417 | 40875 ft | 487 kts | 134° |
| 2026-05-07 16:34 | 7.10310 | 4.91227 | 40871 ft | 487 kts | 134° |
| 2026-05-07 16:34 | 7.05501 | 4.96039 | 40865 ft | 487 kts | 134° |
| 2026-05-07 16:35 | 7.00721 | 5.00821 | 40865 ft | 488 kts | 134° |
| 2026-05-07 16:35 | 6.95911 | 5.05631 | 40865 ft | 488 kts | 134° |
| 2026-05-07 16:36 | 6.91094 | 5.10447 | 40869 ft | 488 kts | 134° |
| 2026-05-07 16:36 | 6.86313 | 5.15225 | 40867 ft | 488 kts | 134° |
| 2026-05-07 16:37 | 6.81498 | 5.20036 | 40863 ft | 488 kts | 134° |
| 2026-05-07 16:37 | 6.76691 | 5.24837 | 40843 ft | 486 kts | 134° |
| 2026-05-07 16:38 | 6.71893 | 5.29628 | 40844 ft | 486 kts | 134° |
| 2026-05-07 16:38 | 6.67100 | 5.34413 | 40837 ft | 486 kts | 134° |
| 2026-05-07 16:39 | 6.62335 | 5.39168 | 40830 ft | 486 kts | 134° |
| 2026-05-07 16:39 | 6.57540 | 5.43953 | 40837 ft | 486 kts | 134° |
| 2026-05-07 16:40 | 6.52745 | 5.48735 | 40835 ft | 486 kts | 134° |
| 2026-05-07 16:40 | 6.47946 | 5.53521 | 40835 ft | 486 kts | 134° |
| 2026-05-07 16:41 | 6.43180 | 5.58271 | 40829 ft | 486 kts | 134° |
| 2026-05-07 16:41 | 6.38394 | 5.63041 | 40832 ft | 483 kts | 134° |
| 2026-05-07 16:42 | 6.33618 | 5.67799 | 40833 ft | 483 kts | 134° |
| 2026-05-07 16:42 | 6.28846 | 5.72552 | 40836 ft | 483 kts | 134° |
| 2026-05-07 16:43 | 6.24105 | 5.77273 | 40840 ft | 483 kts | 134° |
| 2026-05-07 16:43 | 6.19331 | 5.82025 | 40835 ft | 483 kts | 134° |
| 2026-05-07 16:44 | 6.14557 | 5.86776 | 40842 ft | 483 kts | 134° |
| 2026-05-07 16:44 | 6.09779 | 5.91530 | 40834 ft | 483 kts | 134° |
| 2026-05-07 16:45 | 6.05001 | 5.96283 | 40838 ft | 483 kts | 134° |
| 2026-05-07 16:45 | 6.00266 | 6.00991 | 40833 ft | 481 kts | 134° |
| 2026-05-07 16:46 | 5.95517 | 6.05711 | 40833 ft | 480 kts | 134° |
| 2026-05-07 16:46 | 5.90771 | 6.10428 | 40834 ft | 480 kts | 134° |
| 2026-05-07 16:47 | 5.86021 | 6.15149 | 40835 ft | 480 kts | 134° |
| 2026-05-07 16:47 | 5.81308 | 6.19831 | 40834 ft | 480 kts | 134° |
| 2026-05-07 16:48 | 5.76556 | 6.24550 | 40832 ft | 480 kts | 134° |
| 2026-05-07 16:48 | 5.71808 | 6.29264 | 40832 ft | 480 kts | 134° |
| 2026-05-07 16:49 | 5.67057 | 6.33980 | 40839 ft | 480 kts | 134° |
| 2026-05-07 16:49 | 5.62341 | 6.38660 | 40834 ft | 480 kts | 134° |
| 2026-05-07 16:50 | 5.57598 | 6.43366 | 40827 ft | 480 kts | 134° |
| 2026-05-07 16:50 | 5.52850 | 6.48076 | 40835 ft | 480 kts | 134° |
| 2026-05-07 16:51 | 5.48093 | 6.52793 | 40836 ft | 481 kts | 134° |
| 2026-05-07 16:51 | 5.43361 | 6.57485 | 40836 ft | 481 kts | 134° |
| 2026-05-07 16:52 | 5.38598 | 6.62207 | 40846 ft | 481 kts | 134° |
| 2026-05-07 16:52 | 5.33834 | 6.66927 | 40836 ft | 481 kts | 134° |
| 2026-05-07 16:53 | 5.29069 | 6.71648 | 40835 ft | 481 kts | 134° |
| 2026-05-07 16:53 | 5.24308 | 6.76363 | 40839 ft | 481 kts | 134° |
| 2026-05-07 16:54 | 5.19552 | 6.81073 | 40837 ft | 480 kts | 134° |
| 2026-05-07 16:54 | 5.14828 | 6.85751 | 40845 ft | 481 kts | 134° |
| 2026-05-07 16:55 | 5.10061 | 6.90469 | 40834 ft | 482 kts | 133° |
| 2026-05-07 16:55 | 5.05286 | 6.95196 | 40829 ft | 482 kts | 134° |
| 2026-05-07 16:56 | 5.00509 | 6.99921 | 40834 ft | 482 kts | 134° |
| 2026-05-07 16:56 | 4.93377 | 7.06977 | 40847 ft | 482 kts | 134° |
| 2026-05-07 16:57 | 4.88600 | 7.11701 | 40837 ft | 482 kts | 134° |
| 2026-05-07 16:57 | 4.83825 | 7.16422 | 40830 ft | 482 kts | 134° |
| 2026-05-07 16:58 | 4.79082 | 7.21110 | 40846 ft | 482 kts | 134° |
| 2026-05-07 16:58 | 4.74302 | 7.25834 | 40844 ft | 482 kts | 134° |
| 2026-05-07 16:59 | 4.69528 | 7.30551 | 40840 ft | 482 kts | 134° |
| 2026-05-07 16:59 | 4.64750 | 7.35272 | 40838 ft | 482 kts | 134° |
| 2026-05-07 17:00 | 4.60005 | 7.39958 | 40848 ft | 482 kts | 134° |
| 2026-05-07 17:00 | 4.55229 | 7.44673 | 40846 ft | 482 kts | 134° |
| 2026-05-07 17:01 | 4.50452 | 7.49391 | 40837 ft | 482 kts | 134° |
| 2026-05-07 17:01 | 4.45682 | 7.54100 | 40847 ft | 481 kts | 134° |
| 2026-05-07 17:02 | 4.41715 | 7.58014 | 40837 ft | 481 kts | 134° |
| 2026-05-07 17:02 | 4.36171 | 7.63485 | 40831 ft | 481 kts | 134° |
| 2026-05-07 17:03 | 4.31400 | 7.68192 | 40842 ft | 481 kts | 134° |
| 2026-05-07 17:03 | 4.27436 | 7.72102 | 40845 ft | 481 kts | 134° |
| 2026-05-07 17:04 | 4.22667 | 7.76805 | 40849 ft | 481 kts | 134° |
| 2026-05-07 17:04 | 4.17122 | 7.82273 | 40835 ft | 481 kts | 134° |
| 2026-05-07 17:05 | 4.13158 | 7.86180 | 40845 ft | 481 kts | 134° |
| 2026-05-07 17:05 | 4.08288 | 7.90776 | 40846 ft | 481 kts | 137° |
| 2026-05-07 17:06 | 4.03201 | 7.95142 | 40843 ft | 482 kts | 138° |
| 2026-05-07 17:06 | 3.98103 | 7.99501 | 40846 ft | 482 kts | 137° |
| 2026-05-07 17:07 | 3.93036 | 8.03900 | 40837 ft | 482 kts | 137° |
| 2026-05-07 17:07 | 3.88025 | 8.08284 | 40837 ft | 482 kts | 137° |
| 2026-05-07 17:08 | 3.82979 | 8.12703 | 40843 ft | 482 kts | 137° |
| 2026-05-07 17:08 | 3.77929 | 8.17123 | 40843 ft | 482 kts | 137° |
| 2026-05-07 17:09 | 3.72885 | 8.21536 | 40849 ft | 482 kts | 137° |
| 2026-05-07 17:09 | 3.67875 | 8.25917 | 40847 ft | 481 kts | 137° |
| 2026-05-07 17:10 | 3.62829 | 8.30329 | 40844 ft | 481 kts | 137° |
| 2026-05-07 17:10 | 3.57787 | 8.34736 | 40855 ft | 481 kts | 137° |
| 2026-05-07 17:11 | 3.52734 | 8.39153 | 40857 ft | 482 kts | 137° |
| 2026-05-07 17:11 | 3.47711 | 8.43543 | 40857 ft | 483 kts | 137° |
| 2026-05-07 17:12 | 3.42652 | 8.47964 | 40860 ft | 483 kts | 137° |
| 2026-05-07 17:12 | 3.37596 | 8.52381 | 40863 ft | 483 kts | 137° |
| 2026-05-07 17:13 | 3.32536 | 8.56802 | 40863 ft | 483 kts | 137° |
| 2026-05-07 17:13 | 3.27511 | 8.61191 | 40857 ft | 483 kts | 137° |
| 2026-05-07 17:14 | 3.22451 | 8.65610 | 40861 ft | 483 kts | 137° |
| 2026-05-07 17:14 | 3.17392 | 8.70028 | 40861 ft | 483 kts | 137° |
| 2026-05-07 17:15 | 3.12331 | 8.74447 | 40855 ft | 483 kts | 137° |
| 2026-05-07 17:15 | 3.07294 | 8.78844 | 40855 ft | 484 kts | 137° |
| 2026-05-07 17:16 | 3.02218 | 8.83275 | 40847 ft | 484 kts | 136° |
| 2026-05-07 17:16 | 2.97146 | 8.87702 | 40841 ft | 483 kts | 137° |
| 2026-05-07 17:17 | 2.92084 | 8.92119 | 40844 ft | 483 kts | 137° |
| 2026-05-07 17:17 | 2.87059 | 8.96504 | 40838 ft | 483 kts | 137° |
| 2026-05-07 17:18 | 2.81998 | 9.00919 | 40842 ft | 483 kts | 137° |
| 2026-05-07 17:18 | 2.76934 | 9.05336 | 40844 ft | 483 kts | 137° |
| 2026-05-07 17:19 | 2.71874 | 9.09750 | 40842 ft | 483 kts | 136° |
| 2026-05-07 17:19 | 2.66841 | 9.14139 | 40843 ft | 483 kts | 136° |
| 2026-05-07 17:20 | 2.61776 | 9.18557 | 40847 ft | 483 kts | 136° |
| 2026-05-07 17:20 | 2.56716 | 9.22969 | 40847 ft | 483 kts | 136° |
| 2026-05-07 17:21 | 2.51656 | 9.27380 | 40846 ft | 482 kts | 136° |
| 2026-05-07 17:21 | 2.46627 | 9.31764 | 40850 ft | 483 kts | 136° |
| 2026-05-07 17:22 | 2.41569 | 9.36173 | 40847 ft | 482 kts | 136° |
| 2026-05-07 17:22 | 2.36510 | 9.40582 | 40855 ft | 482 kts | 136° |
| 2026-05-07 17:23 | 2.31451 | 9.44991 | 40852 ft | 482 kts | 136° |
| 2026-05-07 17:23 | 2.26426 | 9.49370 | 40855 ft | 483 kts | 136° |
| 2026-05-07 17:24 | 2.21370 | 9.53775 | 40850 ft | 481 kts | 136° |
| 2026-05-07 17:24 | 2.16322 | 9.58173 | 40841 ft | 481 kts | 136° |
| 2026-05-07 17:25 | 2.11281 | 9.62565 | 40852 ft | 481 kts | 136° |
| 2026-05-07 17:25 | 2.06234 | 9.66962 | 40853 ft | 481 kts | 136° |
| 2026-05-07 17:26 | 2.01223 | 9.71326 | 40855 ft | 481 kts | 136° |
| 2026-05-07 17:26 | 1.96178 | 9.75719 | 40858 ft | 481 kts | 136° |
| 2026-05-07 17:27 | 1.91009 | 9.79968 | 40858 ft | 483 kts | 144° |
| 2026-05-07 17:27 | 1.85024 | 9.83071 | 40857 ft | 486 kts | 154° |
| 2026-05-07 17:28 | 1.78825 | 9.85675 | 40857 ft | 487 kts | 155° |
| 2026-05-07 17:28 | 1.72540 | 9.88219 | 40863 ft | 487 kts | 155° |
| 2026-05-07 17:29 | 1.66261 | 9.90777 | 40867 ft | 487 kts | 155° |
| 2026-05-07 17:29 | 1.59992 | 9.93353 | 40865 ft | 487 kts | 155° |
| 2026-05-07 17:30 | 1.53766 | 9.95919 | 40867 ft | 487 kts | 155° |
| 2026-05-07 17:30 | 1.47497 | 9.98504 | 40886 ft | 488 kts | 155° |
| 2026-05-07 17:31 | 1.41210 | 10.01095 | 40878 ft | 489 kts | 155° |
| 2026-05-07 17:31 | 1.34923 | 10.03685 | 40880 ft | 489 kts | 155° |
| 2026-05-07 17:32 | 1.28630 | 10.06276 | 40885 ft | 489 kts | 155° |
| 2026-05-07 17:32 | 1.22384 | 10.08849 | 40884 ft | 489 kts | 155° |
| 2026-05-07 17:33 | 1.16097 | 10.11438 | 40884 ft | 489 kts | 155° |
| 2026-05-07 17:33 | 1.09809 | 10.14028 | 40896 ft | 488 kts | 155° |
| 2026-05-07 17:34 | 1.03549 | 10.16606 | 40881 ft | 486 kts | 155° |
| 2026-05-07 17:34 | 0.97302 | 10.19178 | 40889 ft | 485 kts | 155° |
| 2026-05-07 17:35 | 0.91100 | 10.21733 | 40894 ft | 485 kts | 155° |
| 2026-05-07 17:35 | 0.84859 | 10.24304 | 40883 ft | 485 kts | 155° |
| 2026-05-07 17:36 | 0.78617 | 10.26874 | 40892 ft | 485 kts | 155° |
| 2026-05-07 17:36 | 0.72419 | 10.29426 | 40891 ft | 485 kts | 155° |
| 2026-05-07 17:37 | 0.66181 | 10.31995 | 40889 ft | 485 kts | 155° |
| 2026-05-07 17:37 | 0.59936 | 10.34566 | 40882 ft | 485 kts | 155° |
| 2026-05-07 17:38 | 0.53698 | 10.37134 | 40882 ft | 485 kts | 155° |
| 2026-05-07 17:38 | 0.47496 | 10.39687 | 40882 ft | 485 kts | 155° |
| 2026-05-07 17:39 | 0.41255 | 10.42257 | 40873 ft | 485 kts | 155° |
| 2026-05-07 17:39 | 0.35014 | 10.44827 | 40878 ft | 485 kts | 155° |
| 2026-05-07 17:40 | 0.28770 | 10.47398 | 40872 ft | 485 kts | 155° |
| 2026-05-07 17:40 | 0.22571 | 10.49950 | 40870 ft | 485 kts | 155° |
| 2026-05-07 17:41 | 0.16329 | 10.52519 | 40871 ft | 485 kts | 155° |
| 2026-05-07 17:41 | 0.10084 | 10.55091 | 40859 ft | 485 kts | 155° |
| 2026-05-07 17:42 | 0.03843 | 10.57660 | 40859 ft | 485 kts | 155° |
| 2026-05-07 17:42 | -0.02396 | 10.60229 | 40856 ft | 485 kts | 155° |
| 2026-05-07 17:43 | -0.08585 | 10.62777 | 40860 ft | 484 kts | 155° |
| 2026-05-07 17:43 | -0.14817 | 10.65342 | 40857 ft | 484 kts | 155° |
| 2026-05-07 17:44 | -0.21046 | 10.67906 | 40858 ft | 484 kts | 155° |
| 2026-05-07 17:44 | -0.27275 | 10.70471 | 40859 ft | 484 kts | 155° |
| 2026-05-07 17:45 | -0.33466 | 10.73020 | 40864 ft | 484 kts | 155° |
| 2026-05-07 17:45 | -0.39695 | 10.75584 | 40865 ft | 484 kts | 155° |
| 2026-05-07 17:46 | -0.45920 | 10.78147 | 40870 ft | 484 kts | 155° |
| 2026-05-07 17:46 | -0.52150 | 10.80712 | 40870 ft | 484 kts | 155° |
| 2026-05-07 17:47 | -0.58338 | 10.83260 | 40872 ft | 484 kts | 155° |
| 2026-05-07 17:47 | -0.64564 | 10.85823 | 40872 ft | 484 kts | 155° |
| 2026-05-07 17:48 | -0.70607 | 10.88736 | 40886 ft | 481 kts | 145° |
| 2026-05-07 17:48 | -0.75601 | 10.93096 | 40887 ft | 476 kts | 130° |
| 2026-05-07 17:49 | -0.79851 | 10.98163 | 40880 ft | 475 kts | 127° |
| 2026-05-07 17:49 | -0.83943 | 11.03299 | 40893 ft | 475 kts | 127° |
| 2026-05-07 17:50 | -0.88060 | 11.08459 | 40892 ft | 475 kts | 127° |
| 2026-05-07 17:50 | -0.92204 | 11.13606 | 40893 ft | 475 kts | 127° |
| 2026-05-07 17:51 | -0.96357 | 11.18745 | 40891 ft | 475 kts | 127° |
| 2026-05-07 17:51 | -1.00486 | 11.23850 | 40893 ft | 475 kts | 127° |
| 2026-05-07 17:52 | -1.04638 | 11.28987 | 40893 ft | 475 kts | 127° |
| 2026-05-07 17:52 | -1.08792 | 11.34128 | 40899 ft | 475 kts | 127° |
| 2026-05-07 17:53 | -1.12948 | 11.39272 | 40902 ft | 476 kts | 127° |
| 2026-05-07 17:53 | -1.17077 | 11.44383 | 40901 ft | 476 kts | 127° |
| 2026-05-07 17:54 | -1.21235 | 11.49529 | 40905 ft | 476 kts | 127° |
| 2026-05-07 17:54 | -1.25395 | 11.54678 | 40907 ft | 476 kts | 127° |
| 2026-05-07 17:55 | -1.29552 | 11.59823 | 40906 ft | 476 kts | 127° |
| 2026-05-07 17:55 | -1.33709 | 11.64969 | 40905 ft | 476 kts | 127° |
| 2026-05-07 17:56 | -1.37836 | 11.70080 | 40907 ft | 476 kts | 128° |
| 2026-05-07 17:56 | -1.41992 | 11.75228 | 40909 ft | 476 kts | 128° |
| 2026-05-07 17:57 | -1.45446 | 11.79506 | 40908 ft | 476 kts | 128° |
| 2026-05-07 17:57 | -1.50304 | 11.85518 | 40914 ft | 476 kts | 127° |
| 2026-05-07 17:58 | -1.54428 | 11.90623 | 40913 ft | 475 kts | 127° |
| 2026-05-07 17:58 | -1.58581 | 11.95766 | 40915 ft | 475 kts | 127° |
| 2026-05-07 17:59 | -1.62735 | 12.00912 | 40912 ft | 475 kts | 127° |
| 2026-05-07 17:59 | -1.66886 | 12.06053 | 40918 ft | 475 kts | 127° |
| 2026-05-07 18:00 | -1.71002 | 12.11151 | 40922 ft | 474 kts | 127° |
| 2026-05-07 18:00 | -1.75141 | 12.16284 | 40922 ft | 474 kts | 127° |
| 2026-05-07 18:01 | -1.79282 | 12.21412 | 40922 ft | 474 kts | 127° |
| 2026-05-07 18:01 | -1.83424 | 12.26543 | 40922 ft | 474 kts | 127° |
| 2026-05-07 18:02 | -1.89607 | 12.34204 | 40922 ft | 474 kts | 127° |
| 2026-05-07 18:03 | -1.93750 | 12.39338 | 40918 ft | 474 kts | 127° |
| 2026-05-07 18:03 | -1.97890 | 12.44470 | 40922 ft | 474 kts | 127° |
| 2026-05-07 18:04 | -2.02029 | 12.49601 | 40921 ft | 474 kts | 128° |
| 2026-05-07 18:04 | -2.06165 | 12.54727 | 40923 ft | 474 kts | 128° |
| 2026-05-07 18:05 | -2.10277 | 12.59826 | 40920 ft | 474 kts | 127° |
| 2026-05-07 18:05 | -2.14412 | 12.64953 | 40917 ft | 474 kts | 128° |
| 2026-05-07 18:06 | -2.18550 | 12.70085 | 40915 ft | 474 kts | 127° |
| 2026-05-07 18:06 | -2.22685 | 12.75213 | 40918 ft | 474 kts | 127° |
| 2026-05-07 18:07 | -2.26798 | 12.80315 | 40914 ft | 475 kts | 128° |
| 2026-05-07 18:07 | -2.30950 | 12.85465 | 40914 ft | 476 kts | 128° |
| 2026-05-07 18:08 | -2.35104 | 12.90618 | 40917 ft | 476 kts | 128° |
| 2026-05-07 18:08 | -2.39262 | 12.95775 | 40917 ft | 476 kts | 128° |
| 2026-05-07 18:09 | -2.43387 | 13.00893 | 40914 ft | 476 kts | 128° |
| 2026-05-07 18:09 | -2.47541 | 13.06049 | 40914 ft | 476 kts | 128° |
| 2026-05-07 18:10 | -2.51720 | 13.11187 | 40915 ft | 476 kts | 128° |
| 2026-05-07 18:10 | -2.55908 | 13.16317 | 40916 ft | 476 kts | 128° |
| 2026-05-07 18:11 | -2.60063 | 13.21411 | 40916 ft | 475 kts | 128° |
| 2026-05-07 18:11 | -2.64240 | 13.26539 | 40915 ft | 476 kts | 128° |
| 2026-05-07 18:12 | -2.68164 | 13.31359 | 40911 ft | 476 kts | 128° |
| 2026-05-07 18:12 | -2.72346 | 13.36497 | 40917 ft | 476 kts | 128° |
| 2026-05-07 18:13 | -2.76528 | 13.41635 | 40918 ft | 476 kts | 128° |
| 2026-05-07 18:13 | -2.80681 | 13.46737 | 40918 ft | 476 kts | 128° |
| 2026-05-07 18:14 | -2.84859 | 13.51871 | 40918 ft | 476 kts | 128° |
| 2026-05-07 18:14 | -2.89040 | 13.57011 | 40917 ft | 476 kts | 128° |
| 2026-05-07 18:15 | -2.93221 | 13.62151 | 40919 ft | 476 kts | 128° |
| 2026-05-07 18:15 | -2.97373 | 13.67254 | 40921 ft | 476 kts | 128° |
| 2026-05-07 18:16 | -3.01563 | 13.72406 | 40922 ft | 479 kts | 127° |
| 2026-05-07 18:16 | -3.05769 | 13.77578 | 40923 ft | 479 kts | 127° |
| 2026-05-07 18:17 | -3.09976 | 13.82752 | 40929 ft | 479 kts | 128° |
| 2026-05-07 18:17 | -3.14181 | 13.87924 | 40925 ft | 480 kts | 127° |
| 2026-05-07 18:18 | -3.18368 | 13.93075 | 40930 ft | 481 kts | 127° |
| 2026-05-07 18:18 | -3.22587 | 13.98266 | 40928 ft | 481 kts | 127° |
| 2026-05-07 18:19 | -3.26806 | 14.03457 | 40922 ft | 481 kts | 127° |
| 2026-05-07 18:19 | -3.31026 | 14.08651 | 40924 ft | 481 kts | 127° |
| 2026-05-07 18:20 | -3.35246 | 14.13845 | 40923 ft | 481 kts | 127° |
| 2026-05-07 18:20 | -3.39441 | 14.19011 | 40925 ft | 481 kts | 127° |
| 2026-05-07 18:21 | -3.43664 | 14.24210 | 40916 ft | 481 kts | 127° |
| 2026-05-07 18:21 | -3.47877 | 14.29397 | 40918 ft | 480 kts | 127° |
| 2026-05-07 18:22 | -3.52060 | 14.34550 | 40921 ft | 480 kts | 127° |
| 2026-05-07 18:22 | -3.56268 | 14.39734 | 40918 ft | 480 kts | 127° |
| 2026-05-07 18:23 | -3.60475 | 14.44918 | 40917 ft | 480 kts | 127° |
| 2026-05-07 18:23 | -3.64682 | 14.50101 | 40916 ft | 480 kts | 127° |
| 2026-05-07 18:24 | -3.68890 | 14.55288 | 40917 ft | 480 kts | 127° |
| 2026-05-07 18:24 | -3.73071 | 14.60442 | 40920 ft | 481 kts | 127° |
| 2026-05-07 18:25 | -3.77291 | 14.65645 | 40918 ft | 481 kts | 127° |
| 2026-05-07 18:25 | -3.81510 | 14.70848 | 40919 ft | 481 kts | 127° |
| 2026-05-07 18:26 | -3.85728 | 14.76049 | 40922 ft | 481 kts | 127° |
| 2026-05-07 18:26 | -3.89949 | 14.81256 | 40923 ft | 481 kts | 127° |
| 2026-05-07 18:27 | -3.94141 | 14.86427 | 40919 ft | 481 kts | 127° |
| 2026-05-07 18:27 | -3.98357 | 14.91630 | 40920 ft | 481 kts | 127° |
| 2026-05-07 18:27 | -4.00456 | 14.94220 | 40502 ft | 477 kts | 127° |
| 2026-05-07 18:28 | -4.02554 | 14.96809 | 39686 ft | 480 kts | 127° |
| 2026-05-07 18:28 | -4.04666 | 14.99417 | 38850 ft | 484 kts | 127° |
| 2026-05-07 18:28 | -4.06796 | 15.02048 | 38003 ft | 486 kts | 127° |
| 2026-05-07 18:28 | -4.08924 | 15.04676 | 37266 ft | 486 kts | 127° |
| 2026-05-07 18:29 | -4.11007 | 15.07247 | 36570 ft | 485 kts | 127° |
| 2026-05-07 18:29 | -4.13133 | 15.09871 | 35847 ft | 484 kts | 128° |
| 2026-05-07 18:29 | -4.15255 | 15.12492 | 35099 ft | 485 kts | 128° |
| 2026-05-07 18:29 | -4.17385 | 15.15124 | 34262 ft | 487 kts | 128° |
| 2026-05-07 18:30 | -4.19527 | 15.17770 | 33319 ft | 490 kts | 128° |
| 2026-05-07 18:30 | -4.21678 | 15.20428 | 32398 ft | 492 kts | 128° |
| 2026-05-07 18:30 | -4.23836 | 15.23095 | 31456 ft | 494 kts | 128° |
| 2026-05-07 18:30 | -4.26002 | 15.25767 | 30635 ft | 493 kts | 128° |
| 2026-05-07 18:31 | -4.28189 | 15.28346 | 29977 ft | 490 kts | 130° |
| 2026-05-07 18:31 | -4.30439 | 15.30889 | 29243 ft | 485 kts | 131° |
| 2026-05-07 18:31 | -4.32682 | 15.33384 | 28591 ft | 479 kts | 131° |
| 2026-05-07 18:31 | -4.34899 | 15.35848 | 27926 ft | 473 kts | 131° |
| 2026-05-07 18:32 | -4.37085 | 15.38290 | 27297 ft | 468 kts | 131° |
| 2026-05-07 18:32 | -4.39238 | 15.40711 | 26662 ft | 462 kts | 131° |
| 2026-05-07 18:32 | -4.41359 | 15.43107 | 26041 ft | 457 kts | 131° |
| 2026-05-07 18:32 | -4.43465 | 15.45473 | 25442 ft | 453 kts | 133° |
| 2026-05-07 18:33 | -4.45777 | 15.47621 | 24859 ft | 455 kts | 141° |
| 2026-05-07 18:33 | -4.48381 | 15.49332 | 24292 ft | 454 kts | 152° |
| 2026-05-07 18:33 | -4.51298 | 15.50517 | 23731 ft | 452 kts | 163° |
| 2026-05-07 18:33 | -4.54380 | 15.51063 | 23121 ft | 449 kts | 175° |
| 2026-05-07 18:34 | -4.57479 | 15.50942 | 22455 ft | 446 kts | 187° |
| 2026-05-07 18:34 | -4.60471 | 15.50174 | 21818 ft | 443 kts | 199° |
| 2026-05-07 18:34 | -4.63210 | 15.48797 | 21177 ft | 440 kts | 212° |
| 2026-05-07 18:34 | -4.65511 | 15.46808 | 20932 ft | 438 kts | 227° |
| 2026-05-07 18:35 | -4.67273 | 15.44317 | 20921 ft | 439 kts | 241° |
| 2026-05-07 18:35 | -4.68384 | 15.41474 | 20735 ft | 438 kts | 253° |
| 2026-05-07 18:35 | -4.69162 | 15.38562 | 20497 ft | 438 kts | 255° |
| 2026-05-07 18:35 | -4.69898 | 15.35607 | 20276 ft | 437 kts | 255° |
| 2026-05-07 18:36 | -4.70631 | 15.32654 | 20047 ft | 435 kts | 255° |
| 2026-05-07 18:36 | -4.71362 | 15.29716 | 19819 ft | 434 kts | 255° |
| 2026-05-07 18:36 | -4.72092 | 15.26789 | 19590 ft | 432 kts | 255° |
| 2026-05-07 18:36 | -4.72823 | 15.23866 | 19369 ft | 431 kts | 255° |
| 2026-05-07 18:37 | -4.73550 | 15.20961 | 19147 ft | 430 kts | 255° |
| 2026-05-07 18:37 | -4.74277 | 15.18057 | 18916 ft | 429 kts | 255° |
| 2026-05-07 18:37 | -4.75002 | 15.15161 | 18702 ft | 427 kts | 255° |
| 2026-05-07 18:37 | -4.75724 | 15.12274 | 18478 ft | 426 kts | 255° |
| 2026-05-07 18:38 | -4.76444 | 15.09401 | 18266 ft | 424 kts | 255° |
| 2026-05-07 18:38 | -4.77151 | 15.06574 | 18023 ft | 423 kts | 255° |
| 2026-05-07 18:38 | -4.77865 | 15.03722 | 17779 ft | 422 kts | 255° |
| 2026-05-07 18:38 | -4.78577 | 15.00876 | 17516 ft | 420 kts | 255° |
| 2026-05-07 18:39 | -4.79285 | 14.98044 | 17260 ft | 418 kts | 255° |
| 2026-05-07 18:39 | -4.79989 | 14.95231 | 16922 ft | 414 kts | 255° |
| 2026-05-07 18:39 | -4.80683 | 14.92456 | 16388 ft | 407 kts | 256° |
| 2026-05-07 18:39 | -4.81364 | 14.89716 | 15760 ft | 403 kts | 256° |
| 2026-05-07 18:40 | -4.81745 | 14.86984 | 15139 ft | 400 kts | 269° |
| 2026-05-07 18:40 | -4.81779 | 14.84206 | 14451 ft | 397 kts | 274° |
| 2026-05-07 18:40 | -4.81050 | 14.81589 | 14113 ft | 386 kts | 297° |
| 2026-05-07 18:40 | -4.79448 | 14.79464 | 13886 ft | 391 kts | 318° |
| 2026-05-07 18:41 | -4.77150 | 14.78022 | 13657 ft | 391 kts | 339° |
| 2026-05-07 18:41 | -4.74501 | 14.77495 | 13403 ft | 388 kts | 0° |
| 2026-05-07 18:41 | -4.71868 | 14.77946 | 13151 ft | 385 kts | 21° |
| 2026-05-07 18:41 | -4.69595 | 14.79309 | 12898 ft | 381 kts | 42° |
| 2026-05-07 18:42 | -4.67987 | 14.81395 | 12649 ft | 379 kts | 63° |
| 2026-05-07 18:42 | -4.67268 | 14.83876 | 12401 ft | 377 kts | 84° |
| 2026-05-07 18:42 | -4.67513 | 14.86476 | 12154 ft | 377 kts | 106° |
| 2026-05-07 18:42 | -4.68422 | 14.88924 | 11640 ft | 371 kts | 107° |
| 2026-05-07 18:43 | -4.68851 | 14.91431 | 11228 ft | 361 kts | 97° |
| 2026-05-07 18:43 | -4.69154 | 14.93893 | 10899 ft | 349 kts | 96° |
| 2026-05-07 18:43 | -4.69325 | 14.96252 | 10771 ft | 330 kts | 89° |
| 2026-05-07 18:43 | -4.69058 | 14.98468 | 10659 ft | 312 kts | 77° |
| 2026-05-07 18:44 | -4.68421 | 15.00487 | 10524 ft | 297 kts | 68° |
| 2026-05-07 18:44 | -4.67564 | 15.02316 | 10410 ft | 284 kts | 62° |
| 2026-05-07 18:44 | -4.66600 | 15.03977 | 10274 ft | 274 kts | 58° |
| 2026-05-07 18:44 | -4.65563 | 15.05556 | 10171 ft | 270 kts | 56° |
| 2026-05-07 18:45 | -4.64473 | 15.07099 | 10043 ft | 272 kts | 54° |
| 2026-05-07 18:45 | -4.63344 | 15.08626 | 9797 ft | 276 kts | 53° |
| 2026-05-07 18:45 | -4.62150 | 15.10201 | 9681 ft | 286 kts | 52° |
| 2026-05-07 18:45 | -4.60938 | 15.11777 | 9263 ft | 287 kts | 52° |
| 2026-05-07 18:46 | -4.59707 | 15.13367 | 8913 ft | 289 kts | 52° |
| 2026-05-07 18:46 | -4.58474 | 15.14953 | 8585 ft | 288 kts | 52° |
| 2026-05-07 18:46 | -4.57243 | 15.16535 | 8237 ft | 287 kts | 52° |
| 2026-05-07 18:46 | -4.56034 | 15.18086 | 7925 ft | 286 kts | 52° |
| 2026-05-07 18:47 | -4.54814 | 15.19650 | 7589 ft | 284 kts | 52° |
| 2026-05-07 18:47 | -4.53604 | 15.21212 | 7223 ft | 284 kts | 53° |
| 2026-05-07 18:47 | -4.52465 | 15.22819 | 6910 ft | 282 kts | 56° |
| 2026-05-07 18:47 | -4.51380 | 15.24447 | 6589 ft | 281 kts | 57° |
| 2026-05-07 18:48 | -4.50328 | 15.26087 | 6326 ft | 275 kts | 57° |
| 2026-05-07 18:48 | -4.49331 | 15.27651 | 5973 ft | 260 kts | 57° |
| 2026-05-07 18:48 | -4.48369 | 15.29168 | 5335 ft | 257 kts | 58° |
| 2026-05-07 18:48 | -4.47450 | 15.30671 | 4608 ft | 258 kts | 58° |
| 2026-05-07 18:49 | -4.46510 | 15.32215 | 3762 ft | 261 kts | 58° |
| 2026-05-07 18:49 | -4.45536 | 15.33751 | 3089 ft | 257 kts | 56° |
| 2026-05-07 18:49 | -4.44566 | 15.35215 | 2590 ft | 243 kts | 56° |
| 2026-05-07 18:49 | -4.43714 | 15.36557 | 2310 ft | 217 kts | 56° |
| 2026-05-07 18:50 | -4.42929 | 15.37770 | 2062 ft | 199 kts | 56° |
| 2026-05-07 18:50 | -4.42195 | 15.38866 | 1838 ft | 180 kts | 56° |
| 2026-05-07 18:50 | -4.41549 | 15.39827 | 1645 ft | 165 kts | 58° |
| 2026-05-07 18:50 | -4.40961 | 15.40749 | 1447 ft | 150 kts | 56° |
| 2026-05-07 18:51 | -4.40423 | 15.41581 | 1278 ft | 138 kts | 53° |
| 2026-05-07 18:51 | -4.39916 | 15.42361 | 1116 ft | 129 kts | 54° |
| 2026-05-07 18:51 | -4.39422 | 15.43109 | 1022 ft | 125 kts | 59° |
| 2026-05-07 18:51 | -4.39012 | 15.43757 | 1036 ft | 96 kts | 57° |
| 2026-05-07 18:52 | -4.38704 | 15.44235 | 1038 ft | 68 kts | 57° |
| 2026-05-07 18:52 | -4.38501 | 15.44550 | 1039 ft | 40 kts | 57° |
| 2026-05-07 18:52 | -4.38404 | 15.44701 | 1035 ft | 13 kts | 58° |
| 2026-05-07 18:52 | -4.38358 | 15.44772 | 1034 ft | 14 kts | 57° |
| 2026-05-07 18:53 | -4.38352 | 15.44839 | 1036 ft | 7 kts | 124° |
| 2026-05-07 18:53 | -4.38394 | 15.44878 | 1035 ft | 9 kts | 146° |
| 2026-05-07 18:53 | -4.38401 | 15.44882 | 1034 ft | 0 kts | 146° |
| 2026-05-07 18:55 | -4.38418 | 15.44894 | 1035 ft | 7 kts | 146° |
| 2026-05-07 18:55 | -4.38471 | 15.44915 | 1031 ft | 6 kts | 195° |
| 2026-05-07 18:55 | -4.38519 | 15.44867 | 1032 ft | 13 kts | 236° |
| 2026-05-07 18:55 | -4.38580 | 15.44774 | 1036 ft | 18 kts | 237° |
| 2026-05-07 18:56 | -4.38654 | 15.44662 | 1039 ft | 20 kts | 236° |
| 2026-05-07 18:56 | -4.38736 | 15.44534 | 1039 ft | 24 kts | 237° |
| 2026-05-07 18:56 | -4.38807 | 15.44425 | 1040 ft | 18 kts | 237° |
| 2026-05-07 18:56 | -4.38860 | 15.44350 | 1039 ft | 8 kts | 216° |
| 2026-05-07 18:57 | -4.38894 | 15.44356 | 1039 ft | 6 kts | 158° |
| 2026-05-07 18:57 | -4.38924 | 15.44373 | 1039 ft | 1 kts | 149° |
| 2026-05-07 18:57 | -4.38925 | 15.44374 | 1039 ft | 0 kts | 149° |